Darstellungsparameter: Aktuell verwendete Einstellungen:
Skalierung der Graphiken ... ?
xyx+y,   Skalierungsfaktor:      Skalierung: Modus: x, Faktor: 1
Darstellungszeitraum ... ?
Vom - - bis: - -   Zeitraum: 29.05.2014 - 04.06.2014
Min/Max/Avg-Anzeige ... ?
Zeige MMA aktuell
Zeige MMA Monat
Zeige MMA alles
Zeige --A aktuell
Zeige --A Monat
Zeige --A alles
Keine MMA-Anzeige
MMA:
Keine MMA-Graphiken
MMA-Basis: 29.05.2014 - 04.06.2014
Quicknavigation für Darstellung... ?
Tage:      1T, 2T, 3T, 5T -1T -2T -3T -5T +1T +2T +3T +5T
Wochen: 1W, 2W, 3W -1W -2W -3W +1W +2W +3W
Monate: 1M, 3M, 6M -1M -3M -6M +1M +3M +6M
Jahre:    1J, 3J, 5J, 10J -1J -3J -5J -10J +1J +3J +5J +10J
Nutze für die Darstellung ... ?
Originaldaten oder Mittelwerte auf ...
Stundenbasis Tagesbasis Wochenbasis
Monatsbasis Jahresbasis      Datenbasis: Original-Daten
Darstellen als:
Statistik (Auto) Statistik J:M      Darstellung:
Zur Graphik,    zurück zur Übersicht aller Sensoren.
 
Tabellarische Datenbersicht: ?
 
Sensor: Nr:Datum:Temp:Feuchte:Taupunkt:
Aussen-T/F 1 29-05-2014 00:00:00 11.4 C 94 % 10.47 C
2 29-05-2014 00:05:00 11.4 C 94 % 10.47 C
3 29-05-2014 00:10:00 11.3 C 94 % 10.37 C
4 29-05-2014 00:15:00 11.2 C 94 % 10.27 C
5 29-05-2014 00:20:00 11.1 C 94 % 10.17 C
6 29-05-2014 00:25:00 11.1 C 95 % 10.33 C
7 29-05-2014 00:30:00 11.1 C 95 % 10.33 C
8 29-05-2014 00:35:00 11.1 C 95 % 10.33 C
9 29-05-2014 00:40:00 11.1 C 95 % 10.33 C
10 29-05-2014 00:45:00 11.1 C 95 % 10.33 C
11 29-05-2014 00:50:00 11.1 C 95 % 10.33 C
12 29-05-2014 00:55:00 11 C 95 % 10.23 C
13 29-05-2014 01:00:00 10.9 C 95 % 10.13 C
14 29-05-2014 01:05:00 10.9 C 95 % 10.13 C
15 29-05-2014 01:10:00 10.8 C 95 % 10.03 C
16 29-05-2014 01:15:00 10.8 C 95 % 10.03 C
17 29-05-2014 01:20:00 10.7 C 95 % 9.93 C
18 29-05-2014 01:25:00 10.7 C 95 % 9.93 C
19 29-05-2014 01:30:00 10.6 C 95 % 9.83 C
20 29-05-2014 01:35:00 10.6 C 95 % 9.83 C
21 29-05-2014 01:40:00 10.5 C 95 % 9.73 C
22 29-05-2014 01:45:00 10.4 C 96 % 9.79 C
23 29-05-2014 01:50:00 10.4 C 95 % 9.63 C
24 29-05-2014 01:55:00 10.3 C 96 % 9.69 C
25 29-05-2014 02:00:00 10.3 C 96 % 9.69 C
Sensor: Nr:Datum:Temp:Feuchte:Taupunkt:
Aussen-T/F 26 29-05-2014 02:05:00 10.3 C 96 % 9.69 C
27 29-05-2014 02:10:00 10.3 C 96 % 9.69 C
28 29-05-2014 02:15:00 10.2 C 96 % 9.59 C
29 29-05-2014 02:20:00 10.2 C 96 % 9.59 C
30 29-05-2014 02:25:00 10.1 C 96 % 9.49 C
31 29-05-2014 02:30:00 10.2 C 96 % 9.59 C
32 29-05-2014 02:35:00 10.1 C 96 % 9.49 C
33 29-05-2014 02:40:00 10.1 C 96 % 9.49 C
34 29-05-2014 02:45:00 10.1 C 96 % 9.49 C
35 29-05-2014 02:50:00 9.9 C 96 % 9.29 C
36 29-05-2014 02:55:00 9.9 C 96 % 9.29 C
37 29-05-2014 03:00:00 9.9 C 96 % 9.29 C
38 29-05-2014 03:05:00 9.9 C 96 % 9.29 C
39 29-05-2014 03:10:00 9.9 C 96 % 9.29 C
40 29-05-2014 03:15:00 9.9 C 96 % 9.29 C
41 29-05-2014 03:20:00 9.9 C 96 % 9.29 C
42 29-05-2014 03:25:00 9.9 C 96 % 9.29 C
43 29-05-2014 03:30:00 9.9 C 96 % 9.29 C
44 29-05-2014 03:35:00 9.9 C 96 % 9.29 C
45 29-05-2014 03:40:00 9.8 C 96 % 9.19 C
46 29-05-2014 03:45:00 9.8 C 96 % 9.19 C
47 29-05-2014 03:50:00 9.7 C 96 % 9.09 C
48 29-05-2014 03:55:00 9.6 C 96 % 8.99 C
49 29-05-2014 04:00:00 9.6 C 96 % 8.99 C
50 29-05-2014 04:05:00 9.6 C 96 % 8.99 C
Sensor: Nr:Datum:Temp:Feuchte:Taupunkt:
Aussen-T/F 51 29-05-2014 04:10:00 9.5 C 96 % 8.89 C
52 29-05-2014 04:15:00 9.6 C 97 % 9.15 C
53 29-05-2014 04:20:00 9.7 C 97 % 9.25 C
54 29-05-2014 04:25:00 9.8 C 97 % 9.35 C
55 29-05-2014 04:30:00 9.8 C 97 % 9.35 C
56 29-05-2014 04:35:00 9.9 C 97 % 9.45 C
57 29-05-2014 04:40:00 9.9 C 97 % 9.45 C
58 29-05-2014 04:45:00 9.9 C 97 % 9.45 C
59 29-05-2014 04:50:00 9.8 C 96 % 9.19 C
60 29-05-2014 04:55:00 9.7 C 97 % 9.25 C
61 29-05-2014 05:00:00 9.7 C 97 % 9.25 C
62 29-05-2014 05:05:00 9.7 C 96 % 9.09 C
63 29-05-2014 05:10:00 9.6 C 96 % 8.99 C
64 29-05-2014 05:15:00 9.6 C 96 % 8.99 C
65 29-05-2014 05:20:00 9.6 C 96 % 8.99 C
66 29-05-2014 05:25:00 9.6 C 96 % 8.99 C
67 29-05-2014 05:30:00 9.4 C 96 % 8.8 C
68 29-05-2014 05:35:00 9.4 C 97 % 8.95 C
69 29-05-2014 05:40:00 9.4 C 97 % 8.95 C
70 29-05-2014 05:45:00 9.4 C 97 % 8.95 C
71 29-05-2014 05:50:00 9.4 C 97 % 8.95 C
72 29-05-2014 05:55:00 9.4 C 97 % 8.95 C
73 29-05-2014 06:00:00 9.5 C 97 % 9.05 C
74 29-05-2014 06:05:00 9.5 C 97 % 9.05 C
75 29-05-2014 06:10:00 9.4 C 97 % 8.95 C
Sensor: Nr:Datum:Temp:Feuchte:Taupunkt:
Aussen-T/F 76 29-05-2014 06:15:00 9.4 C 97 % 8.95 C
77 29-05-2014 06:20:00 9.4 C 97 % 8.95 C
78 29-05-2014 06:25:00 9.5 C 97 % 9.05 C
79 29-05-2014 06:30:00 9.5 C 97 % 9.05 C
80 29-05-2014 06:35:00 9.6 C 97 % 9.15 C
81 29-05-2014 06:40:00 9.6 C 97 % 9.15 C
82 29-05-2014 06:45:00 9.6 C 97 % 9.15 C
83 29-05-2014 06:50:00 9.6 C 97 % 9.15 C
84 29-05-2014 06:55:00 9.7 C 97 % 9.25 C
85 29-05-2014 07:00:00 9.6 C 97 % 9.15 C
86 29-05-2014 07:05:00 9.7 C 97 % 9.25 C
87 29-05-2014 07:10:00 9.7 C 97 % 9.25 C
88 29-05-2014 07:15:00 9.7 C 97 % 9.25 C
89 29-05-2014 07:20:00 9.7 C 97 % 9.25 C
90 29-05-2014 07:25:00 9.7 C 97 % 9.25 C
91 29-05-2014 07:30:00 9.7 C 97 % 9.25 C
92 29-05-2014 07:35:00 9.7 C 97 % 9.25 C
93 29-05-2014 07:40:00 9.7 C 97 % 9.25 C
94 29-05-2014 07:45:00 9.8 C 97 % 9.35 C
95 29-05-2014 07:50:00 9.8 C 97 % 9.35 C
96 29-05-2014 07:55:00 9.9 C 97 % 9.45 C
97 29-05-2014 08:00:00 9.9 C 97 % 9.45 C
98 29-05-2014 08:05:00 10.1 C 97 % 9.65 C
99 29-05-2014 08:10:00 10.1 C 97 % 9.65 C
100 29-05-2014 08:15:00 10.1 C 97 % 9.65 C
Sensor: Nr:Datum:Temp:Feuchte:Taupunkt:
Aussen-T/F 101 29-05-2014 08:20:00 10.3 C 97 % 9.85 C
102 29-05-2014 08:25:00 10.4 C 97 % 9.94 C
103 29-05-2014 08:30:00 10.4 C 97 % 9.94 C
104 29-05-2014 08:35:00 10.6 C 97 % 10.14 C
105 29-05-2014 08:40:00 10.7 C 97 % 10.24 C
106 29-05-2014 08:45:00 10.8 C 97 % 10.34 C
107 29-05-2014 08:50:00 10.9 C 96 % 10.29 C
108 29-05-2014 08:55:00 10.9 C 96 % 10.29 C
109 29-05-2014 09:00:00 11.1 C 96 % 10.49 C
110 29-05-2014 09:05:00 11.2 C 96 % 10.59 C
111 29-05-2014 09:10:00 11.2 C 96 % 10.59 C
112 29-05-2014 09:15:00 11.3 C 95 % 10.53 C
113 29-05-2014 09:20:00 11.5 C 95 % 10.73 C
114 29-05-2014 09:25:00 11.7 C 95 % 10.93 C
115 29-05-2014 09:30:00 11.8 C 95 % 11.03 C
116 29-05-2014 09:35:00 12.1 C 94 % 11.16 C
117 29-05-2014 09:40:00 12.2 C 94 % 11.26 C
118 29-05-2014 09:45:00 12.3 C 93 % 11.2 C
119 29-05-2014 09:50:00 12.6 C 93 % 11.5 C
120 29-05-2014 09:55:00 12.8 C 93 % 11.7 C
121 29-05-2014 10:00:00 12.9 C 93 % 11.8 C
122 29-05-2014 10:05:00 13.2 C 92 % 11.93 C
123 29-05-2014 10:10:00 13.3 C 91 % 11.86 C
124 29-05-2014 10:15:00 13.4 C 91 % 11.96 C
125 29-05-2014 10:20:00 13.6 C 91 % 12.16 C
Sensor: Nr:Datum:Temp:Feuchte:Taupunkt:
Aussen-T/F 126 29-05-2014 10:25:00 13.8 C 91 % 12.36 C
127 29-05-2014 10:30:00 14.1 C 90 % 12.49 C
128 29-05-2014 10:35:00 14.2 C 90 % 12.58 C
129 29-05-2014 10:40:00 14.5 C 89 % 12.71 C
130 29-05-2014 10:45:00 14.7 C 89 % 12.91 C
131 29-05-2014 10:50:00 14.9 C 88 % 12.93 C
132 29-05-2014 10:55:00 15.1 C 87 % 12.95 C
133 29-05-2014 11:00:00 15.2 C 87 % 13.05 C
134 29-05-2014 11:05:00 15.2 C 85 % 12.7 C
135 29-05-2014 11:10:00 15.3 C 85 % 12.79 C
136 29-05-2014 11:15:00 15.4 C 84 % 12.71 C
137 29-05-2014 11:20:00 15.6 C 84 % 12.91 C
138 29-05-2014 11:25:00 15.7 C 83 % 12.82 C
139 29-05-2014 11:30:00 15.9 C 85 % 13.38 C
140 29-05-2014 11:35:00 16.2 C 85 % 13.68 C
141 29-05-2014 11:40:00 16.3 C 83 % 13.41 C
142 29-05-2014 11:45:00 16.4 C 81 % 13.13 C
143 29-05-2014 11:50:00 16.6 C 81 % 13.33 C
144 29-05-2014 11:55:00 16.7 C 81 % 13.43 C
145 29-05-2014 12:00:00 16.9 C 79 % 13.24 C
146 29-05-2014 12:05:00 17.1 C 79 % 13.43 C
147 29-05-2014 12:10:00 17.2 C 80 % 13.72 C
148 29-05-2014 12:15:00 17.3 C 78 % 13.43 C
149 29-05-2014 12:20:00 17.5 C 79 % 13.82 C
150 29-05-2014 12:25:00 17.5 C 76 % 13.23 C
Sensor: Nr:Datum:Temp:Feuchte:Taupunkt:
Aussen-T/F 151 29-05-2014 12:30:00 17.8 C 77 % 13.72 C
152 29-05-2014 12:35:00 17.8 C 75 % 13.31 C
153 29-05-2014 12:40:00 17.8 C 74 % 13.11 C
154 29-05-2014 12:45:00 17.7 C 73 % 12.8 C
155 29-05-2014 12:50:00 17.7 C 73 % 12.8 C
156 29-05-2014 12:55:00 17.8 C 76 % 13.52 C
157 29-05-2014 13:00:00 17.9 C 75 % 13.41 C
158 29-05-2014 13:05:00 18.2 C 73 % 13.28 C
159 29-05-2014 13:10:00 18.4 C 71 % 13.05 C
160 29-05-2014 13:15:00 18.7 C 70 % 13.12 C
161 29-05-2014 13:20:00 18.9 C 68 % 12.87 C
162 29-05-2014 13:25:00 19.1 C 69 % 13.28 C
163 29-05-2014 13:30:00 19.3 C 70 % 13.69 C
164 29-05-2014 13:35:00 19.4 C 68 % 13.34 C
165 29-05-2014 13:40:00 19.2 C 69 % 13.38 C
166 29-05-2014 13:45:00 19.1 C 69 % 13.28 C
167 29-05-2014 13:50:00 19.1 C 69 % 13.28 C
168 29-05-2014 13:55:00 19.1 C 69 % 13.28 C
169 29-05-2014 14:00:00 19.2 C 69 % 13.38 C
170 29-05-2014 14:05:00 19.2 C 67 % 12.93 C
171 29-05-2014 14:10:00 19.1 C 68 % 13.06 C
172 29-05-2014 14:15:00 19 C 68 % 12.96 C
173 29-05-2014 14:20:00 18.9 C 69 % 13.09 C
174 29-05-2014 14:25:00 18.8 C 68 % 12.77 C
175 29-05-2014 14:30:00 18.8 C 69 % 13 C
Sensor: Nr:Datum:Temp:Feuchte:Taupunkt:
Aussen-T/F 176 29-05-2014 14:35:00 18.8 C 69 % 13 C
177 29-05-2014 14:40:00 18.7 C 69 % 12.9 C
178 29-05-2014 14:45:00 18.5 C 71 % 13.15 C
179 29-05-2014 14:50:00 18.4 C 71 % 13.05 C
180 29-05-2014 14:55:00 18.4 C 71 % 13.05 C
181 29-05-2014 15:00:00 18.3 C 72 % 13.17 C
182 29-05-2014 15:05:00 18.2 C 72 % 13.07 C
183 29-05-2014 15:10:00 18.2 C 72 % 13.07 C
184 29-05-2014 15:15:00 18.2 C 73 % 13.28 C
185 29-05-2014 15:20:00 18.2 C 71 % 12.86 C
186 29-05-2014 15:25:00 18.1 C 71 % 12.76 C
187 29-05-2014 15:30:00 18.1 C 71 % 12.76 C
188 29-05-2014 15:35:00 17.9 C 70 % 12.35 C
189 29-05-2014 15:40:00 17.7 C 71 % 12.38 C
190 29-05-2014 15:45:00 17.5 C 72 % 12.4 C
191 29-05-2014 15:50:00 17.3 C 72 % 12.21 C
192 29-05-2014 15:55:00 17.2 C 72 % 12.11 C
193 29-05-2014 16:00:00 17.1 C 73 % 12.23 C
194 29-05-2014 16:05:00 17.1 C 73 % 12.23 C
195 29-05-2014 16:10:00 17 C 73 % 12.13 C
196 29-05-2014 16:15:00 17 C 75 % 12.54 C
197 29-05-2014 16:20:00 16.9 C 75 % 12.44 C
198 29-05-2014 16:25:00 16.9 C 75 % 12.44 C
199 29-05-2014 16:30:00 16.9 C 74 % 12.24 C
200 29-05-2014 16:35:00 16.8 C 74 % 12.14 C
Sensor: Nr:Datum:Temp:Feuchte:Taupunkt:
Aussen-T/F 201 29-05-2014 16:40:00 16.7 C 74 % 12.05 C
202 29-05-2014 16:45:00 16.7 C 75 % 12.25 C
203 29-05-2014 16:50:00 16.7 C 75 % 12.25 C
204 29-05-2014 16:55:00 16.7 C 76 % 12.45 C
205 29-05-2014 17:00:00 16.7 C 76 % 12.45 C
206 29-05-2014 17:05:00 16.6 C 76 % 12.36 C
207 29-05-2014 17:10:00 16.6 C 76 % 12.36 C
208 29-05-2014 17:15:00 16.5 C 75 % 12.06 C
209 29-05-2014 17:20:00 16.5 C 76 % 12.26 C
210 29-05-2014 17:25:00 16.4 C 75 % 11.96 C
211 29-05-2014 17:30:00 16.4 C 76 % 12.16 C
212 29-05-2014 17:35:00 16.3 C 77 % 12.26 C
213 29-05-2014 17:40:00 16.3 C 78 % 12.46 C
214 29-05-2014 17:45:00 16.3 C 77 % 12.26 C
215 29-05-2014 17:50:00 16.2 C 77 % 12.17 C
216 29-05-2014 17:55:00 16.1 C 77 % 12.07 C
217 29-05-2014 18:00:00 16 C 78 % 12.17 C
218 29-05-2014 18:05:00 15.9 C 79 % 12.27 C
219 29-05-2014 18:10:00 15.9 C 78 % 12.07 C
220 29-05-2014 18:15:00 15.8 C 78 % 11.97 C
221 29-05-2014 18:20:00 15.7 C 79 % 12.07 C
222 29-05-2014 18:25:00 15.7 C 79 % 12.07 C
223 29-05-2014 18:30:00 15.6 C 79 % 11.97 C
224 29-05-2014 18:35:00 15.6 C 80 % 12.16 C
225 29-05-2014 18:40:00 15.6 C 82 % 12.54 C
Sensor: Nr:Datum:Temp:Feuchte:Taupunkt:
Aussen-T/F 226 29-05-2014 18:45:00 15.4 C 82 % 12.35 C
227 29-05-2014 18:50:00 15.3 C 83 % 12.43 C
228 29-05-2014 18:55:00 15.3 C 84 % 12.61 C
229 29-05-2014 19:00:00 15.2 C 86 % 12.88 C
230 29-05-2014 19:05:00 15.1 C 84 % 12.42 C
231 29-05-2014 19:10:00 14.9 C 83 % 12.04 C
232 29-05-2014 19:15:00 14.8 C 85 % 12.3 C
233 29-05-2014 19:20:00 14.8 C 85 % 12.3 C
234 29-05-2014 19:25:00 14.8 C 86 % 12.48 C
235 29-05-2014 19:30:00 14.8 C 87 % 12.66 C
236 29-05-2014 19:35:00 14.8 C 85 % 12.3 C
237 29-05-2014 19:40:00 14.8 C 85 % 12.3 C
238 29-05-2014 19:45:00 14.7 C 85 % 12.21 C
239 29-05-2014 19:50:00 14.8 C 86 % 12.48 C
240 29-05-2014 19:55:00 14.7 C 85 % 12.21 C
241 29-05-2014 20:00:00 14.7 C 85 % 12.21 C
242 29-05-2014 20:05:00 14.7 C 85 % 12.21 C
243 29-05-2014 20:10:00 14.6 C 85 % 12.11 C
244 29-05-2014 20:15:00 14.6 C 85 % 12.11 C
245 29-05-2014 20:20:00 14.6 C 86 % 12.29 C
246 29-05-2014 20:25:00 14.5 C 87 % 12.36 C
247 29-05-2014 20:30:00 14.4 C 88 % 12.44 C
248 29-05-2014 20:35:00 14.3 C 89 % 12.51 C
249 29-05-2014 20:40:00 14.2 C 89 % 12.41 C
250 29-05-2014 20:45:00 14.1 C 90 % 12.49 C
Sensor: Nr:Datum:Temp:Feuchte:Taupunkt:
Aussen-T/F 251 29-05-2014 20:50:00 13.9 C 90 % 12.29 C
252 29-05-2014 20:55:00 13.9 C 91 % 12.46 C
253 29-05-2014 21:00:00 13.8 C 91 % 12.36 C
254 29-05-2014 21:05:00 13.8 C 91 % 12.36 C
255 29-05-2014 21:10:00 13.8 C 92 % 12.52 C
256 29-05-2014 21:15:00 13.7 C 92 % 12.42 C
257 29-05-2014 21:20:00 13.7 C 92 % 12.42 C
258 29-05-2014 21:25:00 13.7 C 92 % 12.42 C
259 29-05-2014 21:30:00 13.7 C 92 % 12.42 C
260 29-05-2014 21:35:00 13.7 C 92 % 12.42 C
261 29-05-2014 21:40:00 13.6 C 93 % 12.49 C
262 29-05-2014 21:45:00 13.6 C 93 % 12.49 C
263 29-05-2014 21:50:00 13.6 C 93 % 12.49 C
264 29-05-2014 21:55:00 13.5 C 93 % 12.39 C
265 29-05-2014 22:00:00 13.5 C 92 % 12.23 C
266 29-05-2014 22:05:00 13.4 C 90 % 11.79 C
267 29-05-2014 22:10:00 13.3 C 89 % 11.53 C
268 29-05-2014 22:15:00 13.3 C 88 % 11.36 C
269 29-05-2014 22:20:00 13.2 C 88 % 11.26 C
270 29-05-2014 22:25:00 13.1 C 87 % 10.99 C
271 29-05-2014 22:30:00 13 C 87 % 10.89 C
272 29-05-2014 22:35:00 12.9 C 87 % 10.79 C
273 29-05-2014 22:40:00 12.8 C 86 % 10.52 C
274 29-05-2014 22:45:00 12.8 C 86 % 10.52 C
275 29-05-2014 22:50:00 12.7 C 86 % 10.42 C
Sensor: Nr:Datum:Temp:Feuchte:Taupunkt:
Aussen-T/F 276 29-05-2014 22:55:00 12.6 C 85 % 10.15 C
277 29-05-2014 23:00:00 12.6 C 86 % 10.32 C
278 29-05-2014 23:05:00 12.5 C 85 % 10.05 C
279 29-05-2014 23:10:00 12.4 C 86 % 10.13 C
280 29-05-2014 23:15:00 12.4 C 86 % 10.13 C
281 29-05-2014 23:20:00 12.4 C 86 % 10.13 C
282 29-05-2014 23:25:00 12.3 C 86 % 10.03 C
283 29-05-2014 23:30:00 12.3 C 86 % 10.03 C
284 29-05-2014 23:35:00 12.3 C 86 % 10.03 C
285 29-05-2014 23:40:00 12.3 C 86 % 10.03 C
286 29-05-2014 23:45:00 12.3 C 86 % 10.03 C
287 29-05-2014 23:50:00 12.2 C 86 % 9.93 C
288 29-05-2014 23:55:00 12.1 C 86 % 9.83 C
289 30-05-2014 00:00:00 12.1 C 86 % 9.83 C
290 30-05-2014 00:05:00 12.1 C 86 % 9.83 C
291 30-05-2014 00:10:00 12 C 85 % 9.56 C
292 30-05-2014 00:15:00 11.9 C 85 % 9.46 C
293 30-05-2014 00:20:00 11.9 C 85 % 9.46 C
294 30-05-2014 00:25:00 11.9 C 85 % 9.46 C
295 30-05-2014 00:30:00 11.8 C 85 % 9.36 C
296 30-05-2014 00:35:00 11.8 C 85 % 9.36 C
297 30-05-2014 00:40:00 11.8 C 85 % 9.36 C
298 30-05-2014 00:45:00 11.7 C 85 % 9.27 C
299 30-05-2014 00:50:00 11.7 C 85 % 9.27 C
300 30-05-2014 00:55:00 11.6 C 86 % 9.34 C
Sensor: Nr:Datum:Temp:Feuchte:Taupunkt:
Aussen-T/F 301 30-05-2014 01:00:00 11.6 C 86 % 9.34 C
302 30-05-2014 01:05:00 11.5 C 86 % 9.24 C
303 30-05-2014 01:10:00 11.5 C 86 % 9.24 C
304 30-05-2014 01:15:00 11.4 C 85 % 8.97 C
305 30-05-2014 01:20:00 11.4 C 85 % 8.97 C
306 30-05-2014 01:25:00 11.3 C 84 % 8.7 C
307 30-05-2014 01:30:00 11.3 C 84 % 8.7 C
308 30-05-2014 01:35:00 11.2 C 84 % 8.6 C
309 30-05-2014 01:40:00 11.2 C 84 % 8.6 C
310 30-05-2014 01:45:00 11.2 C 84 % 8.6 C
311 30-05-2014 01:50:00 11.2 C 83 % 8.42 C
312 30-05-2014 01:55:00 11.1 C 83 % 8.33 C
313 30-05-2014 02:00:00 11.1 C 84 % 8.5 C
314 30-05-2014 02:05:00 11.1 C 83 % 8.33 C
315 30-05-2014 02:10:00 11.1 C 83 % 8.33 C
316 30-05-2014 02:15:00 11.1 C 83 % 8.33 C
317 30-05-2014 02:20:00 11.1 C 84 % 8.5 C
318 30-05-2014 02:25:00 11.1 C 84 % 8.5 C
319 30-05-2014 02:30:00 11.1 C 84 % 8.5 C
320 30-05-2014 02:35:00 11.1 C 85 % 8.68 C
321 30-05-2014 02:40:00 11.1 C 85 % 8.68 C
322 30-05-2014 02:45:00 11.1 C 85 % 8.68 C
323 30-05-2014 02:50:00 11.1 C 85 % 8.68 C
324 30-05-2014 02:55:00 11.1 C 85 % 8.68 C
325 30-05-2014 03:00:00 11.1 C 85 % 8.68 C
Sensor: Nr:Datum:Temp:Feuchte:Taupunkt:
Aussen-T/F 326 30-05-2014 03:05:00 11 C 85 % 8.58 C
327 30-05-2014 03:10:00 10.9 C 83 % 8.13 C
328 30-05-2014 03:15:00 10.9 C 83 % 8.13 C
329 30-05-2014 03:20:00 10.9 C 83 % 8.13 C
330 30-05-2014 03:25:00 10.9 C 83 % 8.13 C
331 30-05-2014 03:30:00 10.9 C 84 % 8.31 C
332 30-05-2014 03:35:00 10.9 C 83 % 8.13 C
333 30-05-2014 03:40:00 10.9 C 83 % 8.13 C
334 30-05-2014 03:45:00 10.8 C 83 % 8.03 C
335 30-05-2014 03:50:00 10.8 C 83 % 8.03 C
336 30-05-2014 03:55:00 10.8 C 83 % 8.03 C
337 30-05-2014 04:00:00 10.8 C 82 % 7.85 C
338 30-05-2014 04:05:00 10.8 C 83 % 8.03 C
339 30-05-2014 04:10:00 10.7 C 82 % 7.76 C
340 30-05-2014 04:15:00 10.7 C 82 % 7.76 C
341 30-05-2014 04:20:00 10.7 C 83 % 7.93 C
342 30-05-2014 04:25:00 10.7 C 83 % 7.93 C
343 30-05-2014 04:30:00 10.7 C 84 % 8.11 C
344 30-05-2014 04:35:00 10.7 C 83 % 7.93 C
345 30-05-2014 04:40:00 10.6 C 82 % 7.66 C
346 30-05-2014 04:45:00 10.6 C 83 % 7.84 C
347 30-05-2014 04:50:00 10.6 C 82 % 7.66 C
348 30-05-2014 04:55:00 10.6 C 82 % 7.66 C
349 30-05-2014 05:00:00 10.6 C 83 % 7.84 C
350 30-05-2014 05:05:00 10.6 C 82 % 7.66 C
Sensor: Nr:Datum:Temp:Feuchte:Taupunkt:
Aussen-T/F 351 30-05-2014 05:10:00 10.6 C 83 % 7.84 C
352 30-05-2014 05:15:00 10.6 C 84 % 8.01 C
353 30-05-2014 05:20:00 10.5 C 84 % 7.91 C
354 30-05-2014 05:25:00 10.4 C 84 % 7.82 C
355 30-05-2014 05:30:00 10.4 C 83 % 7.64 C
356 30-05-2014 05:35:00 10.4 C 84 % 7.82 C
357 30-05-2014 05:40:00 10.4 C 82 % 7.46 C
358 30-05-2014 05:45:00 10.3 C 83 % 7.54 C
359 30-05-2014 05:50:00 10.3 C 84 % 7.72 C
360 30-05-2014 05:55:00 10.3 C 83 % 7.54 C
361 30-05-2014 06:00:00 10.3 C 83 % 7.54 C
362 30-05-2014 06:05:00 10.3 C 83 % 7.54 C
363 30-05-2014 06:10:00 10.3 C 83 % 7.54 C
364 30-05-2014 06:15:00 10.3 C 83 % 7.54 C
365 30-05-2014 06:20:00 10.3 C 83 % 7.54 C
366 30-05-2014 06:25:00 10.3 C 82 % 7.37 C
367 30-05-2014 06:30:00 10.4 C 82 % 7.46 C
368 30-05-2014 06:35:00 10.4 C 82 % 7.46 C
369 30-05-2014 06:40:00 10.4 C 81 % 7.28 C
370 30-05-2014 06:45:00 10.4 C 81 % 7.28 C
371 30-05-2014 06:50:00 10.4 C 80 % 7.1 C
372 30-05-2014 06:55:00 10.5 C 80 % 7.2 C
373 30-05-2014 07:00:00 10.5 C 80 % 7.2 C
374 30-05-2014 07:05:00 10.5 C 81 % 7.38 C
375 30-05-2014 07:10:00 10.6 C 80 % 7.3 C
Sensor: Nr:Datum:Temp:Feuchte:Taupunkt:
Aussen-T/F 376 30-05-2014 07:15:00 10.6 C 79 % 7.11 C
377 30-05-2014 07:20:00 10.6 C 78 % 6.93 C
378 30-05-2014 07:25:00 10.6 C 79 % 7.11 C
379 30-05-2014 07:30:00 10.7 C 78 % 7.03 C
380 30-05-2014 07:35:00 10.7 C 78 % 7.03 C
381 30-05-2014 07:40:00 10.8 C 77 % 6.94 C
382 30-05-2014 07:45:00 10.8 C 77 % 6.94 C
383 30-05-2014 07:50:00 10.9 C 77 % 7.03 C
384 30-05-2014 07:55:00 11 C 77 % 7.13 C
385 30-05-2014 08:00:00 11.2 C 76 % 7.13 C
386 30-05-2014 08:05:00 11.3 C 76 % 7.23 C
387 30-05-2014 08:10:00 11.4 C 76 % 7.33 C
388 30-05-2014 08:15:00 11.7 C 74 % 7.23 C
389 30-05-2014 08:20:00 11.9 C 74 % 7.42 C
390 30-05-2014 08:25:00 12 C 72 % 7.12 C
391 30-05-2014 08:30:00 12.1 C 72 % 7.21 C
392 30-05-2014 08:35:00 12.1 C 71 % 7.01 C
393 30-05-2014 08:40:00 12 C 70 % 6.71 C
394 30-05-2014 08:45:00 12.1 C 70 % 6.8 C
395 30-05-2014 08:50:00 12.2 C 69 % 6.69 C
396 30-05-2014 08:55:00 12.4 C 68 % 6.67 C
397 30-05-2014 09:00:00 12.5 C 67 % 6.55 C
398 30-05-2014 09:05:00 12.7 C 65 % 6.3 C
399 30-05-2014 09:10:00 12.7 C 66 % 6.52 C
400 30-05-2014 09:15:00 12.7 C 66 % 6.52 C
Sensor: Nr:Datum:Temp:Feuchte:Taupunkt:
Aussen-T/F 401 30-05-2014 09:20:00 12.7 C 67 % 6.74 C
402 30-05-2014 09:25:00 12.6 C 66 % 6.42 C
403 30-05-2014 09:30:00 12.5 C 66 % 6.33 C
404 30-05-2014 09:35:00 12.4 C 66 % 6.23 C
405 30-05-2014 09:40:00 12.3 C 68 % 6.57 C
406 30-05-2014 09:45:00 12.3 C 68 % 6.57 C
407 30-05-2014 09:50:00 12.5 C 67 % 6.55 C
408 30-05-2014 09:55:00 12.7 C 67 % 6.74 C
409 30-05-2014 10:00:00 12.9 C 66 % 6.71 C
410 30-05-2014 10:05:00 13.3 C 66 % 7.09 C
411 30-05-2014 10:10:00 13.7 C 66 % 7.47 C
412 30-05-2014 10:15:00 14 C 65 % 7.53 C
413 30-05-2014 10:20:00 14.3 C 64 % 7.59 C
414 30-05-2014 10:25:00 14.4 C 62 % 7.22 C
415 30-05-2014 10:30:00 14.6 C 64 % 7.87 C
416 30-05-2014 10:35:00 14.7 C 65 % 8.2 C
417 30-05-2014 10:40:00 14.9 C 63 % 7.93 C
418 30-05-2014 10:45:00 15.2 C 62 % 7.98 C
419 30-05-2014 10:50:00 15.2 C 62 % 7.98 C
420 30-05-2014 10:55:00 14.9 C 62 % 7.69 C
421 30-05-2014 11:00:00 14.7 C 62 % 7.5 C
422 30-05-2014 11:05:00 14.5 C 62 % 7.32 C
423 30-05-2014 11:10:00 14.5 C 65 % 8.01 C
424 30-05-2014 11:15:00 14.6 C 65 % 8.1 C
425 30-05-2014 11:20:00 14.5 C 63 % 7.55 C
Sensor: Nr:Datum:Temp:Feuchte:Taupunkt:
Aussen-T/F 426 30-05-2014 11:25:00 14.6 C 63 % 7.64 C
427 30-05-2014 11:30:00 14.6 C 62 % 7.41 C
428 30-05-2014 11:35:00 14.4 C 60 % 6.74 C
429 30-05-2014 11:40:00 14.3 C 63 % 7.36 C
430 30-05-2014 11:45:00 14.6 C 65 % 8.1 C
431 30-05-2014 11:50:00 15.2 C 64 % 8.44 C
432 30-05-2014 11:55:00 15.7 C 62 % 8.45 C
433 30-05-2014 12:00:00 16.1 C 57 % 7.59 C
434 30-05-2014 12:05:00 16 C 58 % 7.75 C
435 30-05-2014 12:10:00 15.6 C 56 % 6.86 C
436 30-05-2014 12:15:00 15.2 C 58 % 7 C
437 30-05-2014 12:20:00 15.2 C 58 % 7 C
438 30-05-2014 12:25:00 15.2 C 59 % 7.25 C
439 30-05-2014 12:30:00 15.2 C 60 % 7.5 C
440 30-05-2014 12:35:00 15.4 C 59 % 7.44 C
441 30-05-2014 12:40:00 15.9 C 65 % 9.34 C
442 30-05-2014 12:45:00 16.4 C 58 % 8.12 C
443 30-05-2014 12:50:00 16.7 C 54 % 7.36 C
444 30-05-2014 12:55:00 16.7 C 55 % 7.62 C
445 30-05-2014 13:00:00 16.8 C 59 % 8.75 C
446 30-05-2014 13:05:00 16.9 C 54 % 7.54 C
447 30-05-2014 13:10:00 17.1 C 58 % 8.78 C
448 30-05-2014 13:15:00 17.1 C 63 % 10.01 C
449 30-05-2014 13:20:00 17.3 C 54 % 7.91 C
450 30-05-2014 13:25:00 17.1 C 56 % 8.26 C
Sensor: Nr:Datum:Temp:Feuchte:Taupunkt:
Aussen-T/F 451 30-05-2014 13:30:00 17.1 C 57 % 8.52 C
452 30-05-2014 13:35:00 17.1 C 56 % 8.26 C
453 30-05-2014 13:40:00 17.2 C 59 % 9.13 C
454 30-05-2014 13:45:00 17.1 C 55 % 8 C
455 30-05-2014 13:50:00 17.3 C 58 % 8.97 C
456 30-05-2014 13:55:00 17.3 C 53 % 7.64 C
457 30-05-2014 14:00:00 17.6 C 58 % 9.25 C
458 30-05-2014 14:05:00 17.8 C 53 % 8.1 C
459 30-05-2014 14:10:00 18 C 56 % 9.1 C
460 30-05-2014 14:15:00 17.8 C 53 % 8.1 C
461 30-05-2014 14:20:00 17.3 C 53 % 7.64 C
462 30-05-2014 14:25:00 17 C 53 % 7.36 C
463 30-05-2014 14:30:00 17.1 C 57 % 8.52 C
464 30-05-2014 14:35:00 17.2 C 52 % 7.27 C
465 30-05-2014 14:40:00 17.2 C 51 % 6.98 C
466 30-05-2014 14:45:00 17.6 C 52 % 7.64 C
467 30-05-2014 14:50:00 17.2 C 54 % 7.82 C
468 30-05-2014 14:55:00 16.8 C 54 % 7.45 C
469 30-05-2014 15:00:00 16.6 C 54 % 7.26 C
470 30-05-2014 15:05:00 16.4 C 54 % 7.08 C
471 30-05-2014 15:10:00 16.1 C 55 % 7.07 C
472 30-05-2014 15:15:00 16 C 57 % 7.49 C
473 30-05-2014 15:20:00 16.4 C 59 % 8.38 C
474 30-05-2014 15:25:00 16.7 C 56 % 7.89 C
475 30-05-2014 15:30:00 16.7 C 56 % 7.89 C
Sensor: Nr:Datum:Temp:Feuchte:Taupunkt:
Aussen-T/F 476 30-05-2014 15:35:00 16.9 C 55 % 7.81 C
477 30-05-2014 15:40:00 17.2 C 55 % 8.09 C
478 30-05-2014 15:45:00 17.3 C 56 % 8.45 C
479 30-05-2014 15:50:00 17.9 C 54 % 8.47 C
480 30-05-2014 15:55:00 17.8 C 54 % 8.38 C
481 30-05-2014 16:00:00 17.3 C 54 % 7.91 C
482 30-05-2014 16:05:00 17 C 56 % 8.17 C
483 30-05-2014 16:10:00 16.8 C 56 % 7.98 C
484 30-05-2014 16:15:00 16.6 C 57 % 8.06 C
485 30-05-2014 16:20:00 16.5 C 55 % 7.44 C
486 30-05-2014 16:25:00 16.3 C 59 % 8.28 C
487 30-05-2014 16:30:00 16.6 C 62 % 9.3 C
488 30-05-2014 16:35:00 17.3 C 57 % 8.71 C
489 30-05-2014 16:40:00 17.9 C 54 % 8.47 C
490 30-05-2014 16:45:00 18 C 54 % 8.56 C
491 30-05-2014 16:50:00 17.6 C 54 % 8.19 C
492 30-05-2014 16:55:00 17.2 C 54 % 7.82 C
493 30-05-2014 17:00:00 16.7 C 55 % 7.62 C
494 30-05-2014 17:05:00 16.4 C 57 % 7.87 C
495 30-05-2014 17:10:00 16.2 C 57 % 7.68 C
496 30-05-2014 17:15:00 16.2 C 58 % 7.94 C
497 30-05-2014 17:20:00 16.1 C 58 % 7.84 C
498 30-05-2014 17:25:00 16.1 C 61 % 8.58 C
499 30-05-2014 17:30:00 16.1 C 59 % 8.09 C
500 30-05-2014 17:35:00 15.9 C 59 % 7.91 C
Sensor: Nr:Datum:Temp:Feuchte:Taupunkt:
Aussen-T/F 501 30-05-2014 17:40:00 15.7 C 58 % 7.47 C
502 30-05-2014 17:45:00 15.9 C 62 % 8.64 C
503 30-05-2014 17:50:00 16.3 C 56 % 7.52 C
504 30-05-2014 17:55:00 16.4 C 58 % 8.12 C
505 30-05-2014 18:00:00 16.7 C 56 % 7.89 C
506 30-05-2014 18:05:00 16.8 C 55 % 7.72 C
507 30-05-2014 18:10:00 16.9 C 56 % 8.07 C
508 30-05-2014 18:15:00 16.8 C 56 % 7.98 C
509 30-05-2014 18:20:00 16.6 C 55 % 7.53 C
510 30-05-2014 18:25:00 16.4 C 56 % 7.61 C
511 30-05-2014 18:30:00 16.1 C 56 % 7.33 C
512 30-05-2014 18:35:00 15.9 C 58 % 7.66 C
513 30-05-2014 18:40:00 16 C 59 % 8 C
514 30-05-2014 18:45:00 16.3 C 58 % 8.03 C
515 30-05-2014 18:50:00 16.7 C 58 % 8.4 C
516 30-05-2014 18:55:00 17 C 57 % 8.43 C
517 30-05-2014 19:00:00 16.7 C 56 % 7.89 C
518 30-05-2014 19:05:00 16.2 C 57 % 7.68 C
519 30-05-2014 19:10:00 15.6 C 57 % 7.12 C
520 30-05-2014 19:15:00 15.3 C 60 % 7.59 C
521 30-05-2014 19:20:00 15.1 C 60 % 7.4 C
522 30-05-2014 19:25:00 15 C 61 % 7.55 C
523 30-05-2014 19:30:00 15.1 C 61 % 7.64 C
524 30-05-2014 19:35:00 15.1 C 60 % 7.4 C
525 30-05-2014 19:40:00 15 C 60 % 7.31 C
Sensor: Nr:Datum:Temp:Feuchte:Taupunkt:
Aussen-T/F 526 30-05-2014 19:45:00 14.9 C 60 % 7.21 C
527 30-05-2014 19:50:00 14.8 C 61 % 7.36 C
528 30-05-2014 19:55:00 14.7 C 60 % 7.03 C
529 30-05-2014 20:00:00 14.6 C 61 % 7.17 C
530 30-05-2014 20:05:00 14.6 C 61 % 7.17 C
531 30-05-2014 20:10:00 14.6 C 60 % 6.93 C
532 30-05-2014 20:15:00 14.6 C 62 % 7.41 C
533 30-05-2014 20:20:00 14.4 C 59 % 6.5 C
534 30-05-2014 20:25:00 14.4 C 60 % 6.74 C
535 30-05-2014 20:30:00 14.3 C 59 % 6.41 C
536 30-05-2014 20:35:00 14.2 C 66 % 7.95 C
537 30-05-2014 20:40:00 14.1 C 61 % 6.7 C
538 30-05-2014 20:45:00 14 C 64 % 7.31 C
539 30-05-2014 20:50:00 13.8 C 69 % 8.22 C
540 30-05-2014 20:55:00 13.6 C 72 % 8.65 C
541 30-05-2014 21:00:00 13.2 C 74 % 8.67 C
542 30-05-2014 21:05:00 12.8 C 75 % 8.48 C
543 30-05-2014 21:10:00 12.4 C 75 % 8.1 C
544 30-05-2014 21:15:00 12.1 C 76 % 8 C
545 30-05-2014 21:20:00 11.7 C 77 % 7.81 C
546 30-05-2014 21:25:00 11.5 C 77 % 7.61 C
547 30-05-2014 21:30:00 11.3 C 77 % 7.42 C
548 30-05-2014 21:35:00 11.1 C 77 % 7.23 C
549 30-05-2014 21:40:00 10.9 C 77 % 7.03 C
550 30-05-2014 21:45:00 10.7 C 78 % 7.03 C
Sensor: Nr:Datum:Temp:Feuchte:Taupunkt:
Aussen-T/F 551 30-05-2014 21:50:00 10.6 C 77 % 6.74 C
552 30-05-2014 21:55:00 10.5 C 78 % 6.83 C
553 30-05-2014 22:00:00 10.4 C 78 % 6.74 C
554 30-05-2014 22:05:00 10.3 C 79 % 6.82 C
555 30-05-2014 22:10:00 10.2 C 80 % 6.91 C
556 30-05-2014 22:15:00 10.1 C 81 % 6.99 C
557 30-05-2014 22:20:00 10.1 C 81 % 6.99 C
558 30-05-2014 22:25:00 10 C 81 % 6.89 C
559 30-05-2014 22:30:00 9.9 C 81 % 6.8 C
560 30-05-2014 22:35:00 9.8 C 82 % 6.88 C
561 30-05-2014 22:40:00 9.7 C 82 % 6.78 C
562 30-05-2014 22:45:00 9.6 C 84 % 7.03 C
563 30-05-2014 22:50:00 9.5 C 84 % 6.94 C
564 30-05-2014 22:55:00 9.4 C 84 % 6.84 C
565 30-05-2014 23:00:00 9.4 C 84 % 6.84 C
566 30-05-2014 23:05:00 9.3 C 84 % 6.74 C
567 30-05-2014 23:10:00 9.2 C 84 % 6.64 C
568 30-05-2014 23:15:00 9.1 C 85 % 6.72 C
569 30-05-2014 23:20:00 8.9 C 85 % 6.52 C
570 30-05-2014 23:25:00 8.8 C 85 % 6.42 C
571 30-05-2014 23:30:00 8.7 C 86 % 6.49 C
572 30-05-2014 23:35:00 8.6 C 86 % 6.39 C
573 30-05-2014 23:40:00 8.5 C 86 % 6.3 C
574 30-05-2014 23:45:00 8.4 C 87 % 6.37 C
575 30-05-2014 23:50:00 8.4 C 87 % 6.37 C
Sensor: Nr:Datum:Temp:Feuchte:Taupunkt:
Aussen-T/F 576 30-05-2014 23:55:00 8.3 C 87 % 6.27 C
577 31-05-2014 00:00:00 8.3 C 87 % 6.27 C
578 31-05-2014 00:05:00 8.2 C 86 % 6 C
579 31-05-2014 00:10:00 8.2 C 87 % 6.17 C
580 31-05-2014 00:15:00 8.2 C 87 % 6.17 C
581 31-05-2014 00:20:00 8.1 C 87 % 6.07 C
582 31-05-2014 00:25:00 8 C 87 % 5.97 C
583 31-05-2014 00:30:00 8 C 88 % 6.14 C
584 31-05-2014 00:35:00 7.9 C 88 % 6.04 C
585 31-05-2014 00:40:00 7.8 C 88 % 5.94 C
586 31-05-2014 00:45:00 7.8 C 89 % 6.1 C
587 31-05-2014 00:50:00 7.7 C 89 % 6 C
588 31-05-2014 00:55:00 7.7 C 89 % 6 C
589 31-05-2014 01:00:00 7.7 C 89 % 6 C
590 31-05-2014 01:05:00 7.6 C 90 % 6.07 C
591 31-05-2014 01:10:00 7.6 C 90 % 6.07 C
592 31-05-2014 01:15:00 7.5 C 90 % 5.97 C
593 31-05-2014 01:20:00 7.5 C 90 % 5.97 C
594 31-05-2014 01:25:00 7.4 C 90 % 5.87 C
595 31-05-2014 01:30:00 7.4 C 90 % 5.87 C
596 31-05-2014 01:35:00 7.3 C 91 % 5.93 C
597 31-05-2014 01:40:00 7.3 C 90 % 5.77 C
598 31-05-2014 01:45:00 7.3 C 91 % 5.93 C
599 31-05-2014 01:50:00 7.3 C 91 % 5.93 C
600 31-05-2014 01:55:00 7.2 C 91 % 5.83 C
Sensor: Nr:Datum:Temp:Feuchte:Taupunkt:
Aussen-T/F 601 31-05-2014 02:00:00 7.2 C 91 % 5.83 C
602 31-05-2014 02:05:00 7.2 C 91 % 5.83 C
603 31-05-2014 02:10:00 7.1 C 92 % 5.89 C
604 31-05-2014 02:15:00 7.1 C 92 % 5.89 C
605 31-05-2014 02:20:00 7 C 92 % 5.79 C
606 31-05-2014 02:25:00 6.9 C 92 % 5.69 C
607 31-05-2014 02:30:00 6.9 C 92 % 5.69 C
608 31-05-2014 02:35:00 6.8 C 93 % 5.75 C
609 31-05-2014 02:40:00 6.8 C 93 % 5.75 C
610 31-05-2014 02:45:00 6.7 C 93 % 5.65 C
611 31-05-2014 02:50:00 6.7 C 93 % 5.65 C
612 31-05-2014 02:55:00 6.7 C 93 % 5.65 C
613 31-05-2014 03:00:00 6.7 C 93 % 5.65 C
614 31-05-2014 03:05:00 6.6 C 93 % 5.55 C
615 31-05-2014 03:10:00 6.6 C 93 % 5.55 C
616 31-05-2014 03:15:00 6.6 C 93 % 5.55 C
617 31-05-2014 03:20:00 6.5 C 93 % 5.45 C
618 31-05-2014 03:25:00 6.4 C 94 % 5.51 C
619 31-05-2014 03:30:00 6.4 C 94 % 5.51 C
620 31-05-2014 03:35:00 6.4 C 94 % 5.51 C
621 31-05-2014 03:40:00 6.3 C 94 % 5.41 C
622 31-05-2014 03:45:00 6.3 C 94 % 5.41 C
623 31-05-2014 03:50:00 6.3 C 94 % 5.41 C
624 31-05-2014 03:55:00 6.2 C 94 % 5.31 C
625 31-05-2014 04:00:00 6.2 C 94 % 5.31 C
Sensor: Nr:Datum:Temp:Feuchte:Taupunkt:
Aussen-T/F 626 31-05-2014 04:05:00 6.1 C 94 % 5.21 C
627 31-05-2014 04:10:00 6.1 C 94 % 5.21 C
628 31-05-2014 04:15:00 6.1 C 94 % 5.21 C
629 31-05-2014 04:20:00 6 C 94 % 5.11 C
630 31-05-2014 04:25:00 6 C 94 % 5.11 C
631 31-05-2014 04:30:00 6 C 95 % 5.26 C
632 31-05-2014 04:35:00 6 C 95 % 5.26 C
633 31-05-2014 04:40:00 5.9 C 95 % 5.16 C
634 31-05-2014 04:45:00 5.9 C 95 % 5.16 C
635 31-05-2014 04:50:00 5.8 C 95 % 5.06 C
636 31-05-2014 04:55:00 5.8 C 95 % 5.06 C
637 31-05-2014 05:00:00 5.8 C 95 % 5.06 C
638 31-05-2014 05:05:00 5.8 C 95 % 5.06 C
639 31-05-2014 05:10:00 5.7 C 95 % 4.96 C
640 31-05-2014 05:15:00 5.7 C 95 % 4.96 C
641 31-05-2014 05:20:00 5.6 C 95 % 4.86 C
642 31-05-2014 05:25:00 5.5 C 95 % 4.76 C
643 31-05-2014 05:30:00 5.4 C 95 % 4.66 C
644 31-05-2014 05:35:00 5.4 C 95 % 4.66 C
645 31-05-2014 05:40:00 5.4 C 95 % 4.66 C
646 31-05-2014 05:45:00 5.4 C 95 % 4.66 C
647 31-05-2014 05:50:00 5.4 C 95 % 4.66 C
648 31-05-2014 05:55:00 5.3 C 95 % 4.57 C
649 31-05-2014 06:00:00 5.3 C 95 % 4.57 C
650 31-05-2014 06:05:00 5.3 C 95 % 4.57 C
Sensor: Nr:Datum:Temp:Feuchte:Taupunkt:
Aussen-T/F 651 31-05-2014 06:10:00 5.4 C 95 % 4.66 C
652 31-05-2014 06:15:00 5.4 C 95 % 4.66 C
653 31-05-2014 06:20:00 5.5 C 96 % 4.91 C
654 31-05-2014 06:25:00 5.5 C 96 % 4.91 C
655 31-05-2014 06:30:00 5.6 C 96 % 5.01 C
656 31-05-2014 06:35:00 5.6 C 96 % 5.01 C
657 31-05-2014 06:40:00 5.7 C 96 % 5.11 C
658 31-05-2014 06:45:00 5.7 C 96 % 5.11 C
659 31-05-2014 06:50:00 5.7 C 96 % 5.11 C
660 31-05-2014 06:55:00 5.7 C 96 % 5.11 C
661 31-05-2014 07:00:00 5.8 C 96 % 5.21 C
662 31-05-2014 07:05:00 5.8 C 96 % 5.21 C
663 31-05-2014 07:10:00 5.8 C 96 % 5.21 C
664 31-05-2014 07:15:00 5.9 C 96 % 5.31 C
665 31-05-2014 07:20:00 6 C 96 % 5.41 C
666 31-05-2014 07:25:00 6.1 C 96 % 5.51 C
667 31-05-2014 07:30:00 6.1 C 96 % 5.51 C
668 31-05-2014 07:35:00 6.3 C 96 % 5.71 C
669 31-05-2014 07:40:00 6.4 C 96 % 5.81 C
670 31-05-2014 07:45:00 6.6 C 96 % 6.01 C
671 31-05-2014 07:50:00 6.7 C 96 % 6.11 C
672 31-05-2014 07:55:00 7 C 96 % 6.41 C
673 31-05-2014 08:00:00 7.3 C 96 % 6.71 C
674 31-05-2014 08:05:00 7.5 C 95 % 6.75 C
675 31-05-2014 08:10:00 7.8 C 94 % 6.9 C
Sensor: Nr:Datum:Temp:Feuchte:Taupunkt:
Aussen-T/F 676 31-05-2014 08:15:00 8.1 C 94 % 7.19 C
677 31-05-2014 08:20:00 8.4 C 92 % 7.18 C
678 31-05-2014 08:25:00 8.6 C 92 % 7.38 C
679 31-05-2014 08:30:00 8.8 C 90 % 7.25 C
680 31-05-2014 08:35:00 8.9 C 90 % 7.35 C
681 31-05-2014 08:40:00 9.1 C 90 % 7.55 C
682 31-05-2014 08:45:00 9.3 C 90 % 7.75 C
683 31-05-2014 08:50:00 9.5 C 90 % 7.94 C
684 31-05-2014 08:55:00 9.8 C 89 % 8.08 C
685 31-05-2014 09:00:00 10.1 C 88 % 8.21 C
686 31-05-2014 09:05:00 10.3 C 87 % 8.23 C
687 31-05-2014 09:10:00 10.5 C 87 % 8.43 C
688 31-05-2014 09:15:00 10.3 C 87 % 8.23 C
689 31-05-2014 09:20:00 10.2 C 88 % 8.3 C
690 31-05-2014 09:25:00 10.2 C 89 % 8.47 C
691 31-05-2014 09:30:00 10.2 C 90 % 8.64 C
692 31-05-2014 09:35:00 10.2 C 90 % 8.64 C
693 31-05-2014 09:40:00 10.3 C 90 % 8.73 C
694 31-05-2014 09:45:00 10.4 C 89 % 8.67 C
695 31-05-2014 09:50:00 10.7 C 89 % 8.96 C
696 31-05-2014 09:55:00 11.2 C 88 % 9.29 C
697 31-05-2014 10:00:00 11.9 C 86 % 9.64 C
698 31-05-2014 10:05:00 12.5 C 84 % 9.87 C
699 31-05-2014 10:10:00 12.9 C 82 % 9.9 C
700 31-05-2014 10:15:00 13.2 C 82 % 10.2 C
Sensor: Nr:Datum:Temp:Feuchte:Taupunkt:
Aussen-T/F 701 31-05-2014 10:20:00 13.7 C 81 % 10.5 C
702 31-05-2014 10:25:00 13.9 C 80 % 10.51 C
703 31-05-2014 10:30:00 14.1 C 82 % 11.08 C
704 31-05-2014 10:35:00 14.2 C 80 % 10.8 C
705 31-05-2014 10:40:00 14.5 C 77 % 10.52 C
706 31-05-2014 10:45:00 14.8 C 74 % 10.22 C
707 31-05-2014 10:50:00 15.3 C 76 % 11.1 C
708 31-05-2014 10:55:00 15.6 C 77 % 11.59 C
709 31-05-2014 11:00:00 15.9 C 69 % 10.23 C
710 31-05-2014 11:05:00 16.3 C 70 % 10.82 C
711 31-05-2014 11:10:00 16.9 C 70 % 11.4 C
712 31-05-2014 11:15:00 17.3 C 69 % 11.56 C
713 31-05-2014 11:20:00 17.6 C 66 % 11.18 C
714 31-05-2014 11:25:00 17.6 C 67 % 11.4 C
715 31-05-2014 11:30:00 17.7 C 64 % 10.81 C
716 31-05-2014 11:35:00 17.9 C 69 % 12.14 C
717 31-05-2014 11:40:00 18 C 68 % 12.01 C
718 31-05-2014 11:45:00 18.3 C 62 % 10.9 C
719 31-05-2014 11:50:00 18.7 C 59 % 10.53 C
720 31-05-2014 11:55:00 18.8 C 61 % 11.13 C
721 31-05-2014 12:00:00 19.2 C 58 % 10.74 C
722 31-05-2014 12:05:00 19.6 C 57 % 10.86 C
723 31-05-2014 12:10:00 19.7 C 52 % 9.58 C
724 31-05-2014 12:15:00 19.6 C 54 % 10.05 C
725 31-05-2014 12:20:00 19.3 C 53 % 9.49 C
Sensor: Nr:Datum:Temp:Feuchte:Taupunkt:
Aussen-T/F 726 31-05-2014 12:25:00 18.9 C 55 % 9.67 C
727 31-05-2014 12:30:00 18.8 C 53 % 9.03 C
728 31-05-2014 12:35:00 18.8 C 53 % 9.03 C
729 31-05-2014 12:40:00 18.9 C 54 % 9.4 C
730 31-05-2014 12:45:00 18.7 C 55 % 9.48 C
731 31-05-2014 12:50:00 18.6 C 54 % 9.12 C
732 31-05-2014 12:55:00 18.8 C 56 % 9.84 C
733 31-05-2014 13:00:00 19.2 C 55 % 9.95 C
734 31-05-2014 13:05:00 19.4 C 53 % 9.58 C
735 31-05-2014 13:10:00 19.4 C 51 % 9.01 C
736 31-05-2014 13:15:00 19.4 C 53 % 9.58 C
737 31-05-2014 13:20:00 19.7 C 50 % 8.99 C
738 31-05-2014 13:25:00 19.9 C 50 % 9.18 C
739 31-05-2014 13:30:00 20.2 C 52 % 10.04 C
740 31-05-2014 13:35:00 20.4 C 53 % 10.51 C
741 31-05-2014 13:40:00 20.7 C 52 % 10.5 C
742 31-05-2014 13:45:00 20.8 C 47 % 9.08 C
743 31-05-2014 13:50:00 21.1 C 51 % 10.58 C
744 31-05-2014 13:55:00 20.8 C 44 % 8.11 C
745 31-05-2014 14:00:00 20.5 C 46 % 8.49 C
746 31-05-2014 14:05:00 20.1 C 47 % 8.45 C
747 31-05-2014 14:10:00 19.8 C 49 % 8.79 C
748 31-05-2014 14:15:00 19.6 C 49 % 8.6 C
749 31-05-2014 14:20:00 19.4 C 50 % 8.72 C
750 31-05-2014 14:25:00 19.3 C 50 % 8.63 C
Sensor: Nr:Datum:Temp:Feuchte:Taupunkt:
Aussen-T/F 751 31-05-2014 14:30:00 19.3 C 52 % 9.21 C
752 31-05-2014 14:35:00 19.3 C 49 % 8.33 C
753 31-05-2014 14:40:00 19.3 C 47 % 7.72 C
754 31-05-2014 14:45:00 19.7 C 50 % 8.99 C
755 31-05-2014 14:50:00 20.4 C 49 % 9.34 C
756 31-05-2014 14:55:00 21 C 45 % 8.62 C
757 31-05-2014 15:00:00 21.3 C 43 % 8.22 C
758 31-05-2014 15:05:00 21.1 C 43 % 8.04 C
759 31-05-2014 15:10:00 20.8 C 45 % 8.44 C
760 31-05-2014 15:15:00 20.6 C 46 % 8.58 C
761 31-05-2014 15:20:00 20.5 C 46 % 8.49 C
762 31-05-2014 15:25:00 20.3 C 47 % 8.63 C
763 31-05-2014 15:30:00 20.2 C 53 % 10.32 C
764 31-05-2014 15:35:00 19.7 C 60 % 11.72 C
765 31-05-2014 15:40:00 19.7 C 59 % 11.47 C
766 31-05-2014 15:45:00 20.3 C 49 % 9.24 C
767 31-05-2014 15:50:00 20.7 C 42 % 7.34 C
768 31-05-2014 15:55:00 20.6 C 57 % 11.79 C
769 31-05-2014 16:00:00 20.3 C 46 % 8.31 C
770 31-05-2014 16:05:00 20.3 C 48 % 8.94 C
771 31-05-2014 16:10:00 20.3 C 49 % 9.24 C
772 31-05-2014 16:15:00 20.3 C 54 % 10.69 C
773 31-05-2014 16:20:00 19.7 C 57 % 10.95 C
774 31-05-2014 16:25:00 19.2 C 60 % 11.25 C
775 31-05-2014 16:30:00 18.9 C 52 % 8.84 C
Sensor: Nr:Datum:Temp:Feuchte:Taupunkt:
Aussen-T/F 776 31-05-2014 16:35:00 19.1 C 52 % 9.02 C
777 31-05-2014 16:40:00 19.3 C 55 % 10.04 C
778 31-05-2014 16:45:00 18.8 C 65 % 12.09 C
779 31-05-2014 16:50:00 18.4 C 62 % 10.99 C
780 31-05-2014 16:55:00 18.2 C 68 % 12.2 C
781 31-05-2014 17:00:00 18 C 70 % 12.45 C
782 31-05-2014 17:05:00 17.9 C 68 % 11.91 C
783 31-05-2014 17:10:00 18.4 C 67 % 12.17 C
784 31-05-2014 17:15:00 19.9 C 53 % 10.04 C
785 31-05-2014 17:20:00 20.9 C 50 % 10.1 C
786 31-05-2014 17:25:00 21.2 C 47 % 9.45 C
787 31-05-2014 17:30:00 20.9 C 46 % 8.86 C
788 31-05-2014 17:35:00 20.8 C 46 % 8.77 C
789 31-05-2014 17:40:00 20.8 C 47 % 9.08 C
790 31-05-2014 17:45:00 20.8 C 48 % 9.4 C
791 31-05-2014 17:50:00 20.7 C 48 % 9.3 C
792 31-05-2014 17:55:00 20.4 C 48 % 9.03 C
793 31-05-2014 18:00:00 20.3 C 51 % 9.84 C
794 31-05-2014 18:05:00 20.2 C 51 % 9.75 C
795 31-05-2014 18:10:00 20.2 C 48 % 8.85 C
796 31-05-2014 18:15:00 20.2 C 48 % 8.85 C
797 31-05-2014 18:20:00 20.4 C 49 % 9.34 C
798 31-05-2014 18:25:00 21 C 47 % 9.27 C
799 31-05-2014 18:30:00 21.6 C 43 % 8.49 C
800 31-05-2014 18:35:00 21.7 C 44 % 8.92 C
Sensor: Nr:Datum:Temp:Feuchte:Taupunkt:
Aussen-T/F 801 31-05-2014 18:40:00 21.4 C 55 % 11.99 C
802 31-05-2014 18:45:00 21.4 C 45 % 8.99 C
803 31-05-2014 18:50:00 21.7 C 42 % 8.24 C
804 31-05-2014 18:55:00 21.9 C 43 % 8.76 C
805 31-05-2014 19:00:00 22.1 C 44 % 9.29 C
806 31-05-2014 19:05:00 22 C 45 % 9.53 C
807 31-05-2014 19:10:00 21.8 C 43 % 8.67 C
808 31-05-2014 19:15:00 21.7 C 45 % 9.26 C
809 31-05-2014 19:20:00 21.5 C 44 % 8.74 C
810 31-05-2014 19:25:00 21.3 C 44 % 8.56 C
811 31-05-2014 19:30:00 21 C 45 % 8.62 C
812 31-05-2014 19:35:00 20.6 C 44 % 7.93 C
813 31-05-2014 19:40:00 20.4 C 45 % 8.08 C
814 31-05-2014 19:45:00 20.2 C 45 % 7.9 C
815 31-05-2014 19:50:00 20.1 C 45 % 7.81 C
816 31-05-2014 19:55:00 19.9 C 47 % 8.26 C
817 31-05-2014 20:00:00 19.7 C 58 % 11.21 C
818 31-05-2014 20:05:00 18.9 C 64 % 11.95 C
819 31-05-2014 20:10:00 18.2 C 67 % 11.98 C
820 31-05-2014 20:15:00 17.7 C 68 % 11.72 C
821 31-05-2014 20:20:00 17.3 C 69 % 11.56 C
822 31-05-2014 20:25:00 16.9 C 70 % 11.4 C
823 31-05-2014 20:30:00 16.7 C 73 % 11.84 C
824 31-05-2014 20:35:00 16.4 C 73 % 11.55 C
825 31-05-2014 20:40:00 16.2 C 73 % 11.36 C
Sensor: Nr:Datum:Temp:Feuchte:Taupunkt:
Aussen-T/F 826 31-05-2014 20:45:00 16 C 74 % 11.37 C
827 31-05-2014 20:50:00 15.8 C 74 % 11.18 C
828 31-05-2014 20:55:00 15.6 C 75 % 11.19 C
829 31-05-2014 21:00:00 15.3 C 75 % 10.9 C
830 31-05-2014 21:05:00 15.2 C 75 % 10.8 C
831 31-05-2014 21:10:00 15 C 76 % 10.81 C
832 31-05-2014 21:15:00 14.8 C 76 % 10.61 C
833 31-05-2014 21:20:00 14.7 C 76 % 10.52 C
834 31-05-2014 21:25:00 14.4 C 78 % 10.62 C
835 31-05-2014 21:30:00 14.3 C 78 % 10.52 C
836 31-05-2014 21:35:00 14.2 C 78 % 10.42 C
837 31-05-2014 21:40:00 14.1 C 79 % 10.52 C
838 31-05-2014 21:45:00 13.9 C 79 % 10.32 C
839 31-05-2014 21:50:00 13.8 C 79 % 10.22 C
840 31-05-2014 21:55:00 13.8 C 78 % 10.03 C
841 31-05-2014 22:00:00 13.7 C 79 % 10.13 C
842 31-05-2014 22:05:00 13.7 C 79 % 10.13 C
843 31-05-2014 22:10:00 13.6 C 78 % 9.84 C
844 31-05-2014 22:15:00 13.6 C 79 % 10.03 C
845 31-05-2014 22:20:00 13.6 C 79 % 10.03 C
846 31-05-2014 22:25:00 13.5 C 80 % 10.12 C
847 31-05-2014 22:30:00 13.5 C 79 % 9.93 C
848 31-05-2014 22:35:00 13.5 C 80 % 10.12 C
849 31-05-2014 22:40:00 13.4 C 81 % 10.21 C
850 31-05-2014 22:45:00 13.4 C 82 % 10.39 C
Sensor: Nr:Datum:Temp:Feuchte:Taupunkt:
Aussen-T/F 851 31-05-2014 22:50:00 13.4 C 80 % 10.02 C
852 31-05-2014 22:55:00 13.4 C 79 % 9.84 C
853 31-05-2014 23:00:00 13.4 C 79 % 9.84 C
854 31-05-2014 23:05:00 13.4 C 79 % 9.84 C
855 31-05-2014 23:10:00 13.3 C 79 % 9.74 C
856 31-05-2014 23:15:00 13.3 C 79 % 9.74 C
857 31-05-2014 23:20:00 13.3 C 80 % 9.93 C
858 31-05-2014 23:25:00 13.3 C 80 % 9.93 C
859 31-05-2014 23:30:00 13.2 C 81 % 10.01 C
860 31-05-2014 23:35:00 13.1 C 82 % 10.1 C
861 31-05-2014 23:40:00 13 C 81 % 9.82 C
862 31-05-2014 23:45:00 12.9 C 81 % 9.72 C
863 31-05-2014 23:50:00 12.8 C 81 % 9.62 C
864 31-05-2014 23:55:00 12.7 C 82 % 9.71 C
865 01-06-2014 00:00:00 12.6 C 81 % 9.43 C
866 01-06-2014 00:05:00 12.4 C 82 % 9.42 C
867 01-06-2014 00:10:00 12.4 C 82 % 9.42 C
868 01-06-2014 00:15:00 12.4 C 82 % 9.42 C
869 01-06-2014 00:20:00 12.4 C 83 % 9.6 C
870 01-06-2014 00:25:00 12.3 C 82 % 9.32 C
871 01-06-2014 00:30:00 12.4 C 83 % 9.6 C
872 01-06-2014 00:35:00 12.4 C 83 % 9.6 C
873 01-06-2014 00:40:00 12.4 C 83 % 9.6 C
874 01-06-2014 00:45:00 12.4 C 83 % 9.6 C
875 01-06-2014 00:50:00 12.4 C 82 % 9.42 C
Sensor: Nr:Datum:Temp:Feuchte:Taupunkt:
Aussen-T/F 876 01-06-2014 00:55:00 12.3 C 82 % 9.32 C
877 01-06-2014 01:00:00 12.3 C 82 % 9.32 C
878 01-06-2014 01:05:00 12.3 C 82 % 9.32 C
879 01-06-2014 01:10:00 12.2 C 83 % 9.4 C
880 01-06-2014 01:15:00 12.2 C 83 % 9.4 C
881 01-06-2014 01:20:00 12.2 C 83 % 9.4 C
882 01-06-2014 01:25:00 12.3 C 83 % 9.5 C
883 01-06-2014 01:30:00 12.3 C 83 % 9.5 C
884 01-06-2014 01:35:00 12.3 C 83 % 9.5 C
885 01-06-2014 01:40:00 12.2 C 83 % 9.4 C
886 01-06-2014 01:45:00 12.1 C 84 % 9.48 C
887 01-06-2014 01:50:00 12.1 C 84 % 9.48 C
888 01-06-2014 01:55:00 12 C 83 % 9.21 C
889 01-06-2014 02:00:00 11.9 C 84 % 9.29 C
890 01-06-2014 02:05:00 11.8 C 84 % 9.19 C
891 01-06-2014 02:10:00 11.8 C 84 % 9.19 C
892 01-06-2014 02:15:00 11.7 C 84 % 9.09 C
893 01-06-2014 02:20:00 11.6 C 85 % 9.17 C
894 01-06-2014 02:25:00 11.5 C 85 % 9.07 C
895 01-06-2014 02:30:00 11.4 C 85 % 8.97 C
896 01-06-2014 02:35:00 11.3 C 85 % 8.87 C
897 01-06-2014 02:40:00 11.3 C 85 % 8.87 C
898 01-06-2014 02:45:00 11.2 C 85 % 8.77 C
899 01-06-2014 02:50:00 11.1 C 85 % 8.68 C
900 01-06-2014 02:55:00 11 C 85 % 8.58 C
Sensor: Nr:Datum:Temp:Feuchte:Taupunkt:
Aussen-T/F 901 01-06-2014 03:00:00 10.9 C 85 % 8.48 C
902 01-06-2014 03:05:00 10.8 C 86 % 8.56 C
903 01-06-2014 03:10:00 10.6 C 87 % 8.53 C
904 01-06-2014 03:15:00 10.5 C 86 % 8.26 C
905 01-06-2014 03:20:00 10.4 C 87 % 8.33 C
906 01-06-2014 03:25:00 10.3 C 87 % 8.23 C
907 01-06-2014 03:30:00 10.3 C 88 % 8.4 C
908 01-06-2014 03:35:00 10.3 C 88 % 8.4 C
909 01-06-2014 03:40:00 10.3 C 88 % 8.4 C
910 01-06-2014 03:45:00 10.4 C 88 % 8.5 C
911 01-06-2014 03:50:00 10.4 C 88 % 8.5 C
912 01-06-2014 03:55:00 10.4 C 88 % 8.5 C
913 01-06-2014 04:00:00 10.4 C 88 % 8.5 C
914 01-06-2014 04:05:00 10.3 C 88 % 8.4 C
915 01-06-2014 04:10:00 10.3 C 89 % 8.57 C
916 01-06-2014 04:15:00 10.2 C 89 % 8.47 C
917 01-06-2014 04:20:00 10.2 C 89 % 8.47 C
918 01-06-2014 04:25:00 10.2 C 89 % 8.47 C
919 01-06-2014 04:30:00 10.2 C 89 % 8.47 C
920 01-06-2014 04:35:00 10.2 C 90 % 8.64 C
921 01-06-2014 04:40:00 10.2 C 90 % 8.64 C
922 01-06-2014 04:45:00 10.2 C 90 % 8.64 C
923 01-06-2014 04:50:00 10.2 C 90 % 8.64 C
924 01-06-2014 04:55:00 10.3 C 90 % 8.73 C
925 01-06-2014 05:00:00 10.3 C 90 % 8.73 C
Sensor: Nr:Datum:Temp:Feuchte:Taupunkt:
Aussen-T/F 926 01-06-2014 05:05:00 10.3 C 90 % 8.73 C
927 01-06-2014 05:10:00 10.3 C 90 % 8.73 C
928 01-06-2014 05:15:00 10.2 C 90 % 8.64 C
929 01-06-2014 05:20:00 10.2 C 90 % 8.64 C
930 01-06-2014 05:25:00 10.3 C 91 % 8.9 C
931 01-06-2014 05:30:00 10.3 C 91 % 8.9 C
932 01-06-2014 05:35:00 10.3 C 91 % 8.9 C
933 01-06-2014 05:40:00 10.6 C 90 % 9.03 C
934 01-06-2014 05:45:00 10.7 C 90 % 9.13 C
935 01-06-2014 05:50:00 10.8 C 89 % 9.06 C
936 01-06-2014 05:55:00 10.9 C 89 % 9.16 C
937 01-06-2014 06:00:00 11.1 C 89 % 9.36 C
938 01-06-2014 06:05:00 11.2 C 88 % 9.29 C
939 01-06-2014 06:10:00 11.2 C 88 % 9.29 C
940 01-06-2014 06:15:00 11.3 C 88 % 9.39 C
941 01-06-2014 06:20:00 11.4 C 86 % 9.14 C
942 01-06-2014 06:25:00 11.4 C 86 % 9.14 C
943 01-06-2014 06:30:00 11.6 C 86 % 9.34 C
944 01-06-2014 06:35:00 11.6 C 84 % 8.99 C
945 01-06-2014 06:40:00 11.7 C 84 % 9.09 C
946 01-06-2014 06:45:00 11.8 C 84 % 9.19 C
947 01-06-2014 06:50:00 11.8 C 83 % 9.01 C
948 01-06-2014 06:55:00 11.8 C 84 % 9.19 C
949 01-06-2014 07:00:00 11.8 C 84 % 9.19 C
950 01-06-2014 07:05:00 11.8 C 83 % 9.01 C
Sensor: Nr:Datum:Temp:Feuchte:Taupunkt:
Aussen-T/F 951 01-06-2014 07:10:00 11.9 C 84 % 9.29 C
952 01-06-2014 07:15:00 11.9 C 84 % 9.29 C
953 01-06-2014 07:20:00 12 C 83 % 9.21 C
954 01-06-2014 07:25:00 12.1 C 83 % 9.3 C
955 01-06-2014 07:30:00 12.2 C 84 % 9.58 C
956 01-06-2014 07:35:00 12.3 C 84 % 9.68 C
957 01-06-2014 07:40:00 12.3 C 83 % 9.5 C
958 01-06-2014 07:45:00 12.4 C 82 % 9.42 C
959 01-06-2014 07:50:00 12.4 C 82 % 9.42 C
960 01-06-2014 07:55:00 12.4 C 82 % 9.42 C
961 01-06-2014 08:00:00 12.4 C 81 % 9.23 C
962 01-06-2014 08:05:00 12.6 C 82 % 9.61 C
963 01-06-2014 08:10:00 12.8 C 82 % 9.81 C
964 01-06-2014 08:15:00 12.9 C 81 % 9.72 C
965 01-06-2014 08:20:00 12.9 C 80 % 9.54 C
966 01-06-2014 08:25:00 13 C 82 % 10 C
967 01-06-2014 08:30:00 13.1 C 81 % 9.92 C
968 01-06-2014 08:35:00 13.2 C 80 % 9.83 C
969 01-06-2014 08:40:00 13.2 C 80 % 9.83 C
970 01-06-2014 08:45:00 13.2 C 80 % 9.83 C
971 01-06-2014 08:50:00 13.3 C 81 % 10.11 C
972 01-06-2014 08:55:00 13.5 C 81 % 10.31 C
973 01-06-2014 09:00:00 13.7 C 80 % 10.32 C
974 01-06-2014 09:05:00 13.7 C 80 % 10.32 C
975 01-06-2014 09:10:00 13.7 C 80 % 10.32 C
Sensor: Nr:Datum:Temp:Feuchte:Taupunkt:
Aussen-T/F 976 01-06-2014 09:15:00 13.7 C 80 % 10.32 C
977 01-06-2014 09:20:00 13.7 C 80 % 10.32 C
978 01-06-2014 09:25:00 14.1 C 79 % 10.52 C
979 01-06-2014 09:30:00 14.1 C 78 % 10.33 C
980 01-06-2014 09:35:00 14 C 77 % 10.04 C
981 01-06-2014 09:40:00 14.1 C 78 % 10.33 C
982 01-06-2014 09:45:00 14.2 C 79 % 10.61 C
983 01-06-2014 09:50:00 14.4 C 79 % 10.81 C
984 01-06-2014 09:55:00 14.7 C 76 % 10.52 C
985 01-06-2014 10:00:00 15.1 C 76 % 10.9 C
986 01-06-2014 10:05:00 15.5 C 74 % 10.89 C
987 01-06-2014 10:10:00 15.9 C 71 % 10.65 C
988 01-06-2014 10:15:00 16.1 C 70 % 10.63 C
989 01-06-2014 10:20:00 16.3 C 71 % 11.04 C
990 01-06-2014 10:25:00 16.4 C 69 % 10.7 C
991 01-06-2014 10:30:00 16.5 C 68 % 10.58 C
992 01-06-2014 10:35:00 16.5 C 69 % 10.8 C
993 01-06-2014 10:40:00 16.7 C 67 % 10.55 C
994 01-06-2014 10:45:00 16.9 C 68 % 10.96 C
995 01-06-2014 10:50:00 17.1 C 66 % 10.7 C
996 01-06-2014 10:55:00 17.3 C 67 % 11.12 C
997 01-06-2014 11:00:00 17.4 C 62 % 10.05 C
998 01-06-2014 11:05:00 17.6 C 64 % 10.72 C
999 01-06-2014 11:10:00 17.8 C 64 % 10.9 C
1000 01-06-2014 11:15:00 18.1 C 62 % 10.71 C
Sensor: Nr:Datum:Temp:Feuchte:Taupunkt:
Aussen-T/F 1001 01-06-2014 11:20:00 18.2 C 60 % 10.31 C
1002 01-06-2014 11:25:00 18.3 C 58 % 9.9 C
1003 01-06-2014 11:30:00 18.3 C 63 % 11.14 C
1004 01-06-2014 11:35:00 18.4 C 60 % 10.5 C
1005 01-06-2014 11:40:00 18.4 C 63 % 11.23 C
1006 01-06-2014 11:45:00 18.6 C 61 % 10.94 C
1007 01-06-2014 11:50:00 18.8 C 58 % 10.37 C
1008 01-06-2014 11:55:00 19.1 C 60 % 11.16 C
1009 01-06-2014 12:00:00 19.2 C 58 % 10.74 C
1010 01-06-2014 12:05:00 19.2 C 59 % 11 C
1011 01-06-2014 12:10:00 19.4 C 59 % 11.19 C
1012 01-06-2014 12:15:00 19.6 C 57 % 10.86 C
1013 01-06-2014 12:20:00 19.7 C 60 % 11.72 C
1014 01-06-2014 12:25:00 19.9 C 52 % 9.76 C
1015 01-06-2014 12:30:00 19.7 C 56 % 10.68 C
1016 01-06-2014 12:35:00 20 C 55 % 10.69 C
1017 01-06-2014 12:40:00 20.3 C 54 % 10.69 C
1018 01-06-2014 12:45:00 20.3 C 52 % 10.13 C
1019 01-06-2014 12:50:00 20.4 C 55 % 11.06 C
1020 01-06-2014 12:55:00 20.7 C 51 % 10.21 C
1021 01-06-2014 13:00:00 20.6 C 51 % 10.12 C
1022 01-06-2014 13:05:00 20.4 C 52 % 10.22 C
1023 01-06-2014 13:10:00 20.5 C 53 % 10.6 C
1024 01-06-2014 13:15:00 20.6 C 51 % 10.12 C
1025 01-06-2014 13:20:00 20.7 C 52 % 10.5 C
Sensor: Nr:Datum:Temp:Feuchte:Taupunkt:
Aussen-T/F 1026 01-06-2014 13:25:00 20.6 C 55 % 11.25 C
1027 01-06-2014 13:30:00 20.8 C 49 % 9.7 C
1028 01-06-2014 13:35:00 21.1 C 56 % 11.99 C
1029 01-06-2014 13:40:00 21.1 C 50 % 10.28 C
1030 01-06-2014 13:45:00 21.1 C 49 % 9.98 C
1031 01-06-2014 13:50:00 20.9 C 51 % 10.39 C
1032 01-06-2014 13:55:00 20.7 C 52 % 10.5 C
1033 01-06-2014 14:00:00 20.4 C 51 % 9.93 C
1034 01-06-2014 14:05:00 20.1 C 51 % 9.66 C
1035 01-06-2014 14:10:00 19.8 C 51 % 9.38 C
1036 01-06-2014 14:15:00 19.8 C 51 % 9.38 C
1037 01-06-2014 14:55:00 21.7 C 45 % 9.26 C
1038 01-06-2014 15:00:00 21.7 C 45 % 9.26 C
1039 01-06-2014 15:05:00 21.7 C 45 % 9.26 C
1040 01-06-2014 15:25:00 22.1 C 46 % 9.95 C
1041 01-06-2014 15:30:00 22.2 C 47 % 10.36 C
1042 01-06-2014 15:35:00 22.3 C 47 % 10.45 C
1043 01-06-2014 15:40:00 22.4 C 45 % 9.89 C
1044 01-06-2014 15:45:00 22.3 C 44 % 9.47 C
1045 01-06-2014 15:50:00 21.7 C 46 % 9.58 C
1046 01-06-2014 15:55:00 21.2 C 47 % 9.45 C
1047 01-06-2014 16:00:00 21 C 47 % 9.27 C
1048 01-06-2014 16:05:00 21 C 49 % 9.89 C
1049 01-06-2014 16:10:00 21 C 49 % 9.89 C
1050 01-06-2014 16:30:00 20.9 C 48 % 9.49 C
Sensor: Nr:Datum:Temp:Feuchte:Taupunkt:
Aussen-T/F 1051 01-06-2014 16:35:00 20.9 C 50 % 10.1 C
1052 01-06-2014 16:40:00 21.1 C 48 % 9.67 C
1053 01-06-2014 16:45:00 21.1 C 47 % 9.36 C
1054 01-06-2014 16:50:00 20.9 C 49 % 9.79 C
1055 01-06-2014 16:55:00 20.8 C 46 % 8.77 C
1056 01-06-2014 17:00:00 20.4 C 48 % 9.03 C
1057 01-06-2014 17:05:00 20.2 C 47 % 8.54 C
1058 01-06-2014 17:10:00 20 C 49 % 8.97 C
1059 01-06-2014 17:15:00 19.9 C 51 % 9.47 C
1060 01-06-2014 17:20:00 19.9 C 50 % 9.18 C
1061 01-06-2014 17:25:00 20 C 50 % 9.27 C
1062 01-06-2014 17:30:00 20.4 C 50 % 9.64 C
1063 01-06-2014 17:35:00 20.5 C 49 % 9.43 C
1064 01-06-2014 17:40:00 20.6 C 47 % 8.9 C
1065 01-06-2014 17:45:00 20.6 C 48 % 9.21 C
1066 01-06-2014 17:50:00 20.3 C 47 % 8.63 C
1067 01-06-2014 17:55:00 20.1 C 46 % 8.13 C
1068 01-06-2014 18:00:00 19.9 C 48 % 8.57 C
1069 01-06-2014 18:05:00 19.6 C 48 % 8.3 C
1070 01-06-2014 18:10:00 19.6 C 50 % 8.9 C
1071 01-06-2014 18:15:00 19.4 C 49 % 8.42 C
1072 01-06-2014 18:20:00 19.3 C 49 % 8.33 C
1073 01-06-2014 18:25:00 19.4 C 51 % 9.01 C
1074 01-06-2014 18:30:00 19.4 C 48 % 8.12 C
1075 01-06-2014 18:35:00 19.4 C 47 % 7.81 C
Sensor: Nr:Datum:Temp:Feuchte:Taupunkt:
Aussen-T/F 1076 01-06-2014 18:40:00 19.4 C 48 % 8.12 C
1077 01-06-2014 18:45:00 19.3 C 49 % 8.33 C
1078 01-06-2014 18:50:00 19.2 C 49 % 8.24 C
1079 01-06-2014 18:55:00 19.2 C 49 % 8.24 C
1080 01-06-2014 19:00:00 19.3 C 49 % 8.33 C
1081 01-06-2014 19:05:00 19.4 C 48 % 8.12 C
1082 01-06-2014 19:10:00 19.3 C 48 % 8.03 C
1083 01-06-2014 19:15:00 19.1 C 47 % 7.53 C
1084 01-06-2014 19:20:00 19 C 50 % 8.35 C
1085 01-06-2014 19:25:00 19 C 51 % 8.64 C
1086 01-06-2014 19:30:00 19.1 C 50 % 8.44 C
1087 01-06-2014 19:35:00 19.1 C 50 % 8.44 C
1088 01-06-2014 19:40:00 19.2 C 50 % 8.53 C
1089 01-06-2014 19:45:00 19 C 50 % 8.35 C
1090 01-06-2014 19:50:00 18.9 C 50 % 8.26 C
1091 01-06-2014 19:55:00 18.8 C 51 % 8.46 C
1092 01-06-2014 20:00:00 18.7 C 50 % 8.08 C
1093 01-06-2014 20:05:00 18.6 C 51 % 8.27 C
1094 01-06-2014 20:10:00 18.5 C 51 % 8.18 C
1095 01-06-2014 20:15:00 18.3 C 51 % 8 C
1096 01-06-2014 20:20:00 18.2 C 51 % 7.91 C
1097 01-06-2014 20:25:00 18.1 C 52 % 8.1 C
1098 01-06-2014 20:30:00 18 C 55 % 8.83 C
1099 01-06-2014 20:35:00 17.8 C 61 % 10.18 C
1100 01-06-2014 20:40:00 17.4 C 63 % 10.29 C
Sensor: Nr:Datum:Temp:Feuchte:Taupunkt:
Aussen-T/F 1101 01-06-2014 20:45:00 17 C 63 % 9.91 C
1102 01-06-2014 20:50:00 16.7 C 65 % 10.09 C
1103 01-06-2014 20:55:00 16.4 C 64 % 9.58 C
1104 01-06-2014 21:00:00 16.3 C 65 % 9.71 C
1105 01-06-2014 21:05:00 16.2 C 68 % 10.29 C
1106 01-06-2014 21:10:00 16 C 69 % 10.32 C
1107 01-06-2014 21:15:00 15.9 C 71 % 10.65 C
1108 01-06-2014 21:20:00 15.8 C 73 % 10.97 C
1109 01-06-2014 21:25:00 15.7 C 72 % 10.67 C
1110 01-06-2014 21:30:00 15.6 C 72 % 10.57 C
1111 01-06-2014 21:35:00 15.5 C 71 % 10.27 C
1112 01-06-2014 21:40:00 15.4 C 70 % 9.96 C
1113 01-06-2014 21:45:00 15.3 C 72 % 10.29 C
1114 01-06-2014 21:50:00 15.3 C 73 % 10.49 C
1115 01-06-2014 21:55:00 15.3 C 73 % 10.49 C
1116 01-06-2014 22:00:00 15.3 C 72 % 10.29 C
1117 01-06-2014 22:05:00 15.6 C 70 % 10.15 C
1118 01-06-2014 22:10:00 15.6 C 71 % 10.37 C
1119 01-06-2014 22:15:00 15.4 C 71 % 10.17 C
1120 01-06-2014 22:20:00 15.2 C 72 % 10.19 C
1121 01-06-2014 22:25:00 15.1 C 73 % 10.3 C
1122 01-06-2014 22:30:00 14.9 C 73 % 10.11 C
1123 01-06-2014 22:35:00 14.8 C 74 % 10.22 C
1124 01-06-2014 22:40:00 14.7 C 75 % 10.32 C
1125 01-06-2014 22:45:00 14.6 C 74 % 10.02 C
Sensor: Nr:Datum:Temp:Feuchte:Taupunkt:
Aussen-T/F 1126 01-06-2014 22:50:00 14.6 C 74 % 10.02 C
1127 01-06-2014 22:55:00 14.6 C 74 % 10.02 C
1128 01-06-2014 23:00:00 14.5 C 74 % 9.93 C
1129 01-06-2014 23:05:00 14.4 C 75 % 10.03 C
1130 01-06-2014 23:10:00 14.3 C 74 % 9.73 C
1131 01-06-2014 23:15:00 14.2 C 73 % 9.43 C
1132 01-06-2014 23:20:00 14 C 72 % 9.04 C
1133 01-06-2014 23:25:00 13.9 C 73 % 9.15 C
1134 01-06-2014 23:30:00 13.8 C 75 % 9.45 C
1135 01-06-2014 23:35:00 13.8 C 76 % 9.65 C
1136 01-06-2014 23:40:00 13.7 C 76 % 9.55 C
1137 01-06-2014 23:45:00 13.7 C 78 % 9.94 C
1138 01-06-2014 23:50:00 13.7 C 76 % 9.55 C
1139 01-06-2014 23:55:00 13.8 C 76 % 9.65 C
1140 02-06-2014 00:00:00 13.7 C 78 % 9.94 C
1141 02-06-2014 00:05:00 13.7 C 78 % 9.94 C
1142 02-06-2014 00:10:00 13.6 C 76 % 9.45 C
1143 02-06-2014 00:15:00 13.6 C 77 % 9.65 C
1144 02-06-2014 00:20:00 13.5 C 77 % 9.55 C
1145 02-06-2014 00:25:00 13.5 C 77 % 9.55 C
1146 02-06-2014 00:30:00 13.4 C 76 % 9.26 C
1147 02-06-2014 00:35:00 13.4 C 77 % 9.45 C
1148 02-06-2014 00:40:00 13.3 C 77 % 9.36 C
1149 02-06-2014 00:45:00 13.3 C 78 % 9.55 C
1150 02-06-2014 00:50:00 13.2 C 77 % 9.26 C
Sensor: Nr:Datum:Temp:Feuchte:Taupunkt:
Aussen-T/F 1151 02-06-2014 00:55:00 13.2 C 79 % 9.64 C
1152 02-06-2014 01:00:00 13.1 C 78 % 9.36 C
1153 02-06-2014 01:05:00 13.1 C 78 % 9.36 C
1154 02-06-2014 01:10:00 13.1 C 79 % 9.54 C
1155 02-06-2014 01:15:00 13.1 C 75 % 8.77 C
1156 02-06-2014 01:20:00 13.2 C 76 % 9.07 C
1157 02-06-2014 01:25:00 13.2 C 76 % 9.07 C
1158 02-06-2014 01:30:00 13.3 C 78 % 9.55 C
1159 02-06-2014 01:35:00 13.2 C 77 % 9.26 C
1160 02-06-2014 01:40:00 13.1 C 77 % 9.16 C
1161 02-06-2014 01:45:00 12.9 C 79 % 9.35 C
1162 02-06-2014 01:50:00 12.7 C 78 % 8.97 C
1163 02-06-2014 01:55:00 12.3 C 78 % 8.58 C
1164 02-06-2014 02:00:00 12.2 C 79 % 8.67 C
1165 02-06-2014 02:05:00 12.1 C 79 % 8.57 C
1166 02-06-2014 02:10:00 12 C 79 % 8.48 C
1167 02-06-2014 02:15:00 11.9 C 79 % 8.38 C
1168 02-06-2014 02:20:00 11.8 C 80 % 8.47 C
1169 02-06-2014 02:25:00 11.7 C 81 % 8.55 C
1170 02-06-2014 02:30:00 11.6 C 81 % 8.45 C
1171 02-06-2014 02:35:00 11.4 C 81 % 8.26 C
1172 02-06-2014 02:40:00 11.3 C 82 % 8.34 C
1173 02-06-2014 02:45:00 11.2 C 81 % 8.06 C
1174 02-06-2014 02:50:00 11.1 C 82 % 8.15 C
1175 02-06-2014 02:55:00 10.9 C 83 % 8.13 C
Sensor: Nr:Datum:Temp:Feuchte:Taupunkt:
Aussen-T/F 1176 02-06-2014 03:00:00 10.8 C 83 % 8.03 C
1177 02-06-2014 03:05:00 10.7 C 84 % 8.11 C
1178 02-06-2014 03:10:00 10.6 C 84 % 8.01 C
1179 02-06-2014 03:15:00 10.5 C 84 % 7.91 C
1180 02-06-2014 03:20:00 10.4 C 85 % 7.99 C
1181 02-06-2014 03:25:00 10.3 C 85 % 7.89 C
1182 02-06-2014 03:30:00 10.2 C 86 % 7.97 C
1183 02-06-2014 03:35:00 10.1 C 86 % 7.87 C
1184 02-06-2014 03:40:00 10.1 C 86 % 7.87 C
1185 02-06-2014 03:45:00 10 C 86 % 7.77 C
1186 02-06-2014 03:50:00 9.9 C 87 % 7.84 C
1187 02-06-2014 03:55:00 9.8 C 87 % 7.74 C
1188 02-06-2014 04:00:00 9.7 C 87 % 7.64 C
1189 02-06-2014 04:05:00 9.7 C 87 % 7.64 C
1190 02-06-2014 04:10:00 9.6 C 88 % 7.71 C
1191 02-06-2014 04:15:00 9.5 C 88 % 7.61 C
1192 02-06-2014 04:20:00 9.4 C 89 % 7.68 C
1193 02-06-2014 04:25:00 9.4 C 89 % 7.68 C
1194 02-06-2014 04:30:00 9.3 C 89 % 7.58 C
1195 02-06-2014 04:35:00 9.3 C 89 % 7.58 C
1196 02-06-2014 04:40:00 9.2 C 90 % 7.65 C
1197 02-06-2014 04:45:00 9.2 C 90 % 7.65 C
1198 02-06-2014 04:50:00 9.1 C 89 % 7.39 C
1199 02-06-2014 04:55:00 9.1 C 90 % 7.55 C
1200 02-06-2014 05:00:00 9.1 C 90 % 7.55 C
Sensor: Nr:Datum:Temp:Feuchte:Taupunkt:
Aussen-T/F 1201 02-06-2014 05:05:00 8.9 C 90 % 7.35 C
1202 02-06-2014 05:10:00 8.9 C 90 % 7.35 C
1203 02-06-2014 05:15:00 8.8 C 91 % 7.41 C
1204 02-06-2014 05:20:00 8.8 C 91 % 7.41 C
1205 02-06-2014 05:25:00 8.8 C 91 % 7.41 C
1206 02-06-2014 05:30:00 8.7 C 91 % 7.32 C
1207 02-06-2014 05:35:00 8.7 C 92 % 7.47 C
1208 02-06-2014 05:40:00 8.7 C 92 % 7.47 C
1209 02-06-2014 05:45:00 8.7 C 92 % 7.47 C
1210 02-06-2014 05:50:00 8.7 C 92 % 7.47 C
1211 02-06-2014 05:55:00 8.7 C 92 % 7.47 C
1212 02-06-2014 06:00:00 8.7 C 92 % 7.47 C
1213 02-06-2014 06:05:00 8.7 C 92 % 7.47 C
1214 02-06-2014 06:10:00 8.7 C 92 % 7.47 C
1215 02-06-2014 06:15:00 8.7 C 92 % 7.47 C
1216 02-06-2014 06:20:00 8.7 C 92 % 7.47 C
1217 02-06-2014 06:25:00 8.8 C 92 % 7.57 C
1218 02-06-2014 06:30:00 8.8 C 93 % 7.73 C
1219 02-06-2014 06:35:00 8.8 C 93 % 7.73 C
1220 02-06-2014 06:40:00 8.8 C 93 % 7.73 C
1221 02-06-2014 06:45:00 8.9 C 93 % 7.83 C
1222 02-06-2014 06:50:00 8.9 C 93 % 7.83 C
1223 02-06-2014 06:55:00 9 C 92 % 7.77 C
1224 02-06-2014 07:00:00 9.1 C 92 % 7.87 C
1225 02-06-2014 07:05:00 9.2 C 93 % 8.13 C
Sensor: Nr:Datum:Temp:Feuchte:Taupunkt:
Aussen-T/F 1226 02-06-2014 07:10:00 9.4 C 92 % 8.17 C
1227 02-06-2014 07:15:00 9.5 C 91 % 8.11 C
1228 02-06-2014 07:20:00 9.6 C 91 % 8.21 C
1229 02-06-2014 07:25:00 9.7 C 90 % 8.14 C
1230 02-06-2014 07:30:00 9.8 C 90 % 8.24 C
1231 02-06-2014 07:35:00 9.8 C 89 % 8.08 C
1232 02-06-2014 07:40:00 9.9 C 89 % 8.17 C
1233 02-06-2014 07:45:00 9.9 C 90 % 8.34 C
1234 02-06-2014 07:50:00 10.2 C 90 % 8.64 C
1235 02-06-2014 07:55:00 10.4 C 90 % 8.83 C
1236 02-06-2014 08:00:00 10.7 C 89 % 8.96 C
1237 02-06-2014 08:05:00 11.1 C 89 % 9.36 C
1238 02-06-2014 08:10:00 11.2 C 88 % 9.29 C
1239 02-06-2014 08:15:00 11.4 C 88 % 9.49 C
1240 02-06-2014 08:20:00 11.6 C 86 % 9.34 C
1241 02-06-2014 08:25:00 11.8 C 86 % 9.54 C
1242 02-06-2014 08:30:00 11.9 C 85 % 9.46 C
1243 02-06-2014 08:35:00 11.9 C 85 % 9.46 C
1244 02-06-2014 08:40:00 11.9 C 85 % 9.46 C
1245 02-06-2014 09:15:00 14.2 C 100 % 14.2 C
1246 02-06-2014 09:20:00 14.2 C 79 % 10.61 C
1247 02-06-2014 09:25:00 14.1 C 77 % 10.13 C
1248 02-06-2014 09:30:00 14.1 C 78 % 10.33 C
1249 02-06-2014 09:35:00 14.2 C 78 % 10.42 C
1250 02-06-2014 09:40:00 14.5 C 78 % 10.71 C
Sensor: Nr:Datum:Temp:Feuchte:Taupunkt:
Aussen-T/F 1251 02-06-2014 09:45:00 14.7 C 75 % 10.32 C
1252 02-06-2014 09:50:00 14.8 C 75 % 10.42 C
1253 02-06-2014 09:55:00 14.9 C 74 % 10.31 C
1254 02-06-2014 10:00:00 15.2 C 75 % 10.8 C
1255 02-06-2014 10:05:00 15.2 C 75 % 10.8 C
1256 02-06-2014 10:10:00 15.5 C 72 % 10.48 C
1257 02-06-2014 10:15:00 15.6 C 70 % 10.15 C
1258 02-06-2014 10:20:00 15.7 C 73 % 10.88 C
1259 02-06-2014 10:25:00 15.9 C 69 % 10.23 C
1260 02-06-2014 10:30:00 16 C 73 % 11.17 C
1261 02-06-2014 10:35:00 16.1 C 72 % 11.06 C
1262 02-06-2014 10:40:00 16.1 C 72 % 11.06 C
1263 02-06-2014 12:25:00 20.8 C 50 % 10 C
1264 02-06-2014 12:30:00 20.8 C 50 % 10 C
1265 02-06-2014 12:35:00 20.8 C 50 % 10 C
1266 02-06-2014 13:25:00 20.9 C 49 % 9.79 C
1267 02-06-2014 13:30:00 20.8 C 49 % 9.7 C
1268 02-06-2014 13:35:00 20.8 C 49 % 9.7 C
1269 02-06-2014 13:40:00 21.2 C 47 % 9.45 C
1270 02-06-2014 13:45:00 21.2 C 47 % 9.45 C
1271 02-06-2014 13:50:00 21.3 C 45 % 8.89 C
1272 02-06-2014 13:55:00 21.3 C 49 % 10.16 C
1273 02-06-2014 14:00:00 21.3 C 49 % 10.16 C
1274 02-06-2014 14:05:00 21.3 C 49 % 10.16 C
1275 02-06-2014 14:10:00 21.4 C 49 % 10.25 C
Sensor: Nr:Datum:Temp:Feuchte:Taupunkt:
Aussen-T/F 1276 02-06-2014 14:15:00 21.4 C 51 % 10.85 C
1277 02-06-2014 14:20:00 21.7 C 47 % 9.9 C
1278 02-06-2014 14:25:00 21.8 C 50 % 10.92 C
1279 02-06-2014 14:30:00 22.2 C 46 % 10.04 C
1280 02-06-2014 14:35:00 22 C 45 % 9.53 C
1281 02-06-2014 14:40:00 21.9 C 45 % 9.44 C
1282 02-06-2014 14:45:00 22.2 C 46 % 10.04 C
1283 02-06-2014 14:50:00 22.4 C 45 % 9.89 C
1284 02-06-2014 14:55:00 22.6 C 44 % 9.74 C
1285 02-06-2014 15:00:00 22.7 C 44 % 9.83 C
1286 02-06-2014 15:05:00 22.6 C 43 % 9.4 C
1287 02-06-2014 15:10:00 22.1 C 43 % 8.95 C
1288 02-06-2014 15:15:00 21.9 C 45 % 9.44 C
1289 02-06-2014 15:20:00 22.1 C 45 % 9.62 C
1290 02-06-2014 15:25:00 22.3 C 44 % 9.47 C
1291 02-06-2014 15:30:00 22.6 C 44 % 9.74 C
1292 02-06-2014 15:35:00 22.6 C 44 % 9.74 C
1293 02-06-2014 15:40:00 22.7 C 43 % 9.49 C
1294 02-06-2014 15:45:00 22.8 C 45 % 10.25 C
1295 02-06-2014 15:50:00 23.2 C 41 % 9.23 C
1296 02-06-2014 15:55:00 23.2 C 39 % 8.49 C
1297 02-06-2014 16:00:00 22.5 C 43 % 9.31 C
1298 02-06-2014 16:05:00 22.1 C 42 % 8.6 C
1299 02-06-2014 16:10:00 21.8 C 42 % 8.33 C
1300 02-06-2014 16:15:00 21.8 C 42 % 8.33 C
Sensor: Nr:Datum:Temp:Feuchte:Taupunkt:
Aussen-T/F 1301 02-06-2014 16:20:00 22.5 C 45 % 9.98 C
1302 02-06-2014 16:25:00 23.1 C 42 % 9.5 C
1303 02-06-2014 16:30:00 23.2 C 41 % 9.23 C
1304 02-06-2014 16:35:00 23.4 C 45 % 10.8 C
1305 02-06-2014 16:40:00 23.8 C 40 % 9.4 C
1306 02-06-2014 16:45:00 23.6 C 41 % 9.59 C
1307 02-06-2014 16:50:00 23.7 C 41 % 9.68 C
1308 02-06-2014 16:55:00 23.6 C 39 % 8.84 C
1309 02-06-2014 17:00:00 23.4 C 42 % 9.77 C
1310 02-06-2014 17:05:00 23.6 C 42 % 9.94 C
1311 02-06-2014 17:10:00 23.8 C 39 % 9.02 C
1312 02-06-2014 17:15:00 23.7 C 38 % 8.55 C
1313 02-06-2014 17:20:00 23.7 C 40 % 9.31 C
1314 02-06-2014 17:25:00 23.7 C 40 % 9.31 C
1315 02-06-2014 17:30:00 23.8 C 41 % 9.76 C
1316 02-06-2014 17:35:00 23.8 C 41 % 9.76 C
1317 02-06-2014 17:40:00 23.8 C 39 % 9.02 C
1318 02-06-2014 17:45:00 24 C 38 % 8.82 C
1319 02-06-2014 17:50:00 24 C 38 % 8.82 C
1320 02-06-2014 18:30:00 23.7 C 40 % 9.31 C
1321 02-06-2014 18:35:00 23.6 C 42 % 9.94 C
1322 02-06-2014 18:40:00 23.6 C 39 % 8.84 C
1323 02-06-2014 18:45:00 23.7 C 40 % 9.31 C
1324 02-06-2014 18:50:00 23.6 C 39 % 8.84 C
1325 02-06-2014 18:55:00 23.5 C 40 % 9.13 C
Sensor: Nr:Datum:Temp:Feuchte:Taupunkt:
Aussen-T/F 1326 02-06-2014 19:00:00 23.5 C 40 % 9.13 C
1327 02-06-2014 19:05:00 23.4 C 40 % 9.04 C
1328 02-06-2014 19:10:00 23.4 C 39 % 8.67 C
1329 02-06-2014 19:15:00 22.8 C 40 % 8.5 C
1330 02-06-2014 19:20:00 22.5 C 41 % 8.6 C
1331 02-06-2014 19:25:00 22.4 C 41 % 8.51 C
1332 02-06-2014 19:30:00 22.3 C 42 % 8.78 C
1333 02-06-2014 19:35:00 22.1 C 43 % 8.95 C
1334 02-06-2014 19:40:00 22 C 42 % 8.51 C
1335 02-06-2014 19:45:00 21.8 C 43 % 8.67 C
1336 02-06-2014 19:50:00 21.7 C 42 % 8.24 C
1337 02-06-2014 19:55:00 21.6 C 42 % 8.15 C
1338 02-06-2014 20:00:00 21.4 C 42 % 7.97 C
1339 02-06-2014 20:05:00 21.3 C 43 % 8.22 C
1340 02-06-2014 20:10:00 21.2 C 43 % 8.13 C
1341 02-06-2014 20:15:00 21.1 C 43 % 8.04 C
1342 02-06-2014 20:20:00 20.9 C 45 % 8.53 C
1343 02-06-2014 20:25:00 20.8 C 44 % 8.11 C
1344 02-06-2014 20:30:00 20.4 C 55 % 11.06 C
1345 02-06-2014 20:35:00 19.7 C 56 % 10.68 C
1346 02-06-2014 20:40:00 19.3 C 59 % 11.09 C
1347 02-06-2014 20:45:00 18.9 C 65 % 12.18 C
1348 02-06-2014 20:50:00 18.6 C 65 % 11.9 C
1349 02-06-2014 20:55:00 18.2 C 66 % 11.75 C
1350 02-06-2014 21:00:00 17.8 C 67 % 11.6 C
Sensor: Nr:Datum:Temp:Feuchte:Taupunkt:
Aussen-T/F 1351 02-06-2014 21:05:00 17.6 C 66 % 11.18 C
1352 02-06-2014 21:10:00 17.4 C 67 % 11.21 C
1353 02-06-2014 21:15:00 17.2 C 68 % 11.25 C
1354 02-06-2014 21:20:00 17 C 69 % 11.28 C
1355 02-06-2014 21:25:00 16.8 C 70 % 11.3 C
1356 02-06-2014 21:30:00 16.7 C 69 % 10.99 C
1357 02-06-2014 21:35:00 16.6 C 70 % 11.11 C
1358 02-06-2014 21:40:00 16.5 C 71 % 11.23 C
1359 02-06-2014 21:45:00 16.4 C 67 % 10.26 C
1360 02-06-2014 21:50:00 16.3 C 69 % 10.61 C
1361 02-06-2014 21:55:00 16.3 C 69 % 10.61 C
1362 02-06-2014 22:00:00 16.3 C 69 % 10.61 C
1363 02-06-2014 22:05:00 16.2 C 68 % 10.29 C
1364 02-06-2014 22:10:00 16.2 C 67 % 10.07 C
1365 02-06-2014 22:15:00 16.1 C 69 % 10.42 C
1366 02-06-2014 22:20:00 16 C 69 % 10.32 C
1367 02-06-2014 22:25:00 15.9 C 70 % 10.44 C
1368 02-06-2014 22:30:00 15.9 C 70 % 10.44 C
1369 02-06-2014 22:35:00 15.9 C 70 % 10.44 C
1370 02-06-2014 22:40:00 15.9 C 72 % 10.86 C
1371 02-06-2014 22:45:00 15.9 C 72 % 10.86 C
1372 02-06-2014 22:50:00 15.9 C 69 % 10.23 C
1373 02-06-2014 22:55:00 15.9 C 71 % 10.65 C
1374 02-06-2014 23:00:00 15.9 C 69 % 10.23 C
1375 02-06-2014 23:05:00 15.8 C 70 % 10.34 C
Sensor: Nr:Datum:Temp:Feuchte:Taupunkt:
Aussen-T/F 1376 02-06-2014 23:10:00 15.8 C 69 % 10.13 C
1377 02-06-2014 23:15:00 15.8 C 69 % 10.13 C
1378 02-06-2014 23:20:00 15.8 C 72 % 10.77 C
1379 02-06-2014 23:25:00 15.7 C 70 % 10.25 C
1380 02-06-2014 23:30:00 15.7 C 71 % 10.46 C
1381 02-06-2014 23:35:00 15.5 C 70 % 10.06 C
1382 02-06-2014 23:40:00 15.4 C 70 % 9.96 C
1383 02-06-2014 23:45:00 15.3 C 70 % 9.87 C
1384 02-06-2014 23:50:00 15.2 C 72 % 10.19 C
1385 02-06-2014 23:55:00 15.1 C 71 % 9.89 C
1386 03-06-2014 00:00:00 15 C 72 % 10 C
1387 03-06-2014 00:05:00 14.9 C 73 % 10.11 C
1388 03-06-2014 00:10:00 14.8 C 73 % 10.01 C
1389 03-06-2014 00:15:00 14.8 C 74 % 10.22 C
1390 03-06-2014 00:20:00 14.7 C 73 % 9.92 C
1391 03-06-2014 00:25:00 14.7 C 74 % 10.12 C
1392 03-06-2014 00:30:00 14.6 C 74 % 10.02 C
1393 03-06-2014 00:35:00 14.6 C 75 % 10.22 C
1394 03-06-2014 00:40:00 14.4 C 75 % 10.03 C
1395 03-06-2014 00:45:00 14.2 C 75 % 9.84 C
1396 03-06-2014 00:50:00 14.1 C 76 % 9.94 C
1397 03-06-2014 00:55:00 14 C 76 % 9.84 C
1398 03-06-2014 01:00:00 13.9 C 76 % 9.74 C
1399 03-06-2014 01:05:00 13.8 C 77 % 9.84 C
1400 03-06-2014 01:10:00 13.7 C 78 % 9.94 C
Sensor: Nr:Datum:Temp:Feuchte:Taupunkt:
Aussen-T/F 1401 03-06-2014 01:15:00 13.7 C 78 % 9.94 C
1402 03-06-2014 01:20:00 13.6 C 78 % 9.84 C
1403 03-06-2014 01:25:00 13.4 C 79 % 9.84 C
1404 03-06-2014 01:30:00 13.4 C 79 % 9.84 C
1405 03-06-2014 01:35:00 13.3 C 79 % 9.74 C
1406 03-06-2014 01:40:00 13.2 C 79 % 9.64 C
1407 03-06-2014 01:45:00 13.2 C 79 % 9.64 C
1408 03-06-2014 01:50:00 13.1 C 80 % 9.73 C
1409 03-06-2014 01:55:00 12.9 C 80 % 9.54 C
1410 03-06-2014 02:00:00 12.8 C 81 % 9.62 C
1411 03-06-2014 02:05:00 12.7 C 81 % 9.53 C
1412 03-06-2014 02:10:00 12.7 C 81 % 9.53 C
1413 03-06-2014 02:15:00 12.5 C 81 % 9.33 C
1414 03-06-2014 02:20:00 12.4 C 82 % 9.42 C
1415 03-06-2014 02:25:00 12.3 C 82 % 9.32 C
1416 03-06-2014 02:30:00 12.2 C 82 % 9.22 C
1417 03-06-2014 02:35:00 12.1 C 82 % 9.12 C
1418 03-06-2014 02:40:00 11.9 C 83 % 9.11 C
1419 03-06-2014 02:45:00 11.8 C 83 % 9.01 C
1420 03-06-2014 02:50:00 11.8 C 83 % 9.01 C
1421 03-06-2014 02:55:00 11.7 C 84 % 9.09 C
1422 03-06-2014 03:00:00 11.7 C 84 % 9.09 C
1423 03-06-2014 03:05:00 11.5 C 85 % 9.07 C
1424 03-06-2014 03:10:00 11.4 C 85 % 8.97 C
1425 03-06-2014 03:15:00 11.3 C 85 % 8.87 C
Sensor: Nr:Datum:Temp:Feuchte:Taupunkt:
Aussen-T/F 1426 03-06-2014 03:20:00 11.2 C 85 % 8.77 C
1427 03-06-2014 03:25:00 11.1 C 86 % 8.85 C
1428 03-06-2014 03:30:00 11.1 C 86 % 8.85 C
1429 03-06-2014 03:35:00 10.9 C 86 % 8.65 C
1430 03-06-2014 03:40:00 10.9 C 86 % 8.65 C
1431 03-06-2014 03:45:00 10.8 C 87 % 8.73 C
1432 03-06-2014 03:50:00 10.8 C 87 % 8.73 C
1433 03-06-2014 03:55:00 10.8 C 87 % 8.73 C
1434 03-06-2014 04:00:00 10.7 C 87 % 8.63 C
1435 03-06-2014 04:05:00 10.6 C 87 % 8.53 C
1436 03-06-2014 04:10:00 10.5 C 88 % 8.6 C
1437 03-06-2014 04:15:00 10.4 C 88 % 8.5 C
1438 03-06-2014 04:20:00 10.4 C 88 % 8.5 C
1439 03-06-2014 04:25:00 10.3 C 89 % 8.57 C
1440 03-06-2014 04:30:00 10.3 C 89 % 8.57 C
1441 03-06-2014 04:35:00 10.2 C 89 % 8.47 C
1442 03-06-2014 04:40:00 10.2 C 89 % 8.47 C
1443 03-06-2014 04:45:00 10.1 C 90 % 8.54 C
1444 03-06-2014 04:50:00 10.1 C 90 % 8.54 C
1445 03-06-2014 04:55:00 10 C 90 % 8.44 C
1446 03-06-2014 05:00:00 9.9 C 90 % 8.34 C
1447 03-06-2014 05:05:00 9.9 C 91 % 8.5 C
1448 03-06-2014 05:10:00 9.9 C 91 % 8.5 C
1449 03-06-2014 05:15:00 9.9 C 91 % 8.5 C
1450 03-06-2014 05:20:00 9.8 C 91 % 8.4 C
Sensor: Nr:Datum:Temp:Feuchte:Taupunkt:
Aussen-T/F 1451 03-06-2014 05:25:00 9.8 C 91 % 8.4 C
1452 03-06-2014 05:30:00 9.8 C 92 % 8.56 C
1453 03-06-2014 05:35:00 9.8 C 92 % 8.56 C
1454 03-06-2014 05:40:00 9.8 C 92 % 8.56 C
1455 03-06-2014 05:45:00 9.8 C 92 % 8.56 C
1456 03-06-2014 05:50:00 9.8 C 92 % 8.56 C
1457 03-06-2014 05:55:00 9.8 C 92 % 8.56 C
1458 03-06-2014 06:00:00 9.8 C 92 % 8.56 C
1459 03-06-2014 06:05:00 9.8 C 92 % 8.56 C
1460 03-06-2014 06:10:00 9.9 C 93 % 8.82 C
1461 03-06-2014 06:15:00 10 C 93 % 8.92 C
1462 03-06-2014 06:20:00 10.1 C 92 % 8.86 C
1463 03-06-2014 06:25:00 10.1 C 92 % 8.86 C
1464 03-06-2014 06:30:00 10.2 C 92 % 8.96 C
1465 03-06-2014 06:35:00 10.2 C 92 % 8.96 C
1466 03-06-2014 06:40:00 10.3 C 92 % 9.06 C
1467 03-06-2014 06:45:00 10.4 C 92 % 9.16 C
1468 03-06-2014 06:50:00 10.5 C 92 % 9.26 C
1469 03-06-2014 06:55:00 10.6 C 91 % 9.19 C
1470 03-06-2014 07:00:00 10.7 C 91 % 9.29 C
1471 03-06-2014 07:05:00 10.8 C 91 % 9.39 C
1472 03-06-2014 07:10:00 10.9 C 91 % 9.49 C
1473 03-06-2014 07:15:00 11 C 90 % 9.42 C
1474 03-06-2014 07:20:00 11.1 C 90 % 9.52 C
1475 03-06-2014 07:25:00 11.3 C 90 % 9.72 C
Sensor: Nr:Datum:Temp:Feuchte:Taupunkt:
Aussen-T/F 1476 03-06-2014 07:30:00 11.4 C 89 % 9.65 C
1477 03-06-2014 07:35:00 11.6 C 89 % 9.85 C
1478 03-06-2014 07:40:00 11.7 C 88 % 9.78 C
1479 03-06-2014 07:45:00 11.8 C 88 % 9.88 C
1480 03-06-2014 07:50:00 12.1 C 88 % 10.17 C
1481 03-06-2014 07:55:00 12.2 C 86 % 9.93 C
1482 03-06-2014 08:00:00 12.3 C 86 % 10.03 C
1483 03-06-2014 08:05:00 12.4 C 86 % 10.13 C
1484 03-06-2014 08:10:00 12.5 C 85 % 10.05 C
1485 03-06-2014 08:15:00 12.6 C 85 % 10.15 C
1486 03-06-2014 08:20:00 12.7 C 85 % 10.25 C
1487 03-06-2014 08:25:00 12.9 C 85 % 10.44 C
1488 03-06-2014 08:30:00 13.1 C 83 % 10.28 C
1489 03-06-2014 08:35:00 13.3 C 83 % 10.48 C
1490 03-06-2014 08:40:00 13.4 C 83 % 10.57 C
1491 03-06-2014 08:45:00 13.6 C 81 % 10.4 C
1492 03-06-2014 08:50:00 13.7 C 81 % 10.5 C
1493 03-06-2014 08:55:00 13.7 C 80 % 10.32 C
1494 03-06-2014 09:00:00 13.8 C 80 % 10.41 C
1495 03-06-2014 09:05:00 13.9 C 80 % 10.51 C
1496 03-06-2014 09:10:00 14.1 C 80 % 10.71 C
1497 03-06-2014 09:15:00 14.2 C 80 % 10.8 C
1498 03-06-2014 09:20:00 14.3 C 81 % 11.09 C
1499 03-06-2014 09:25:00 14.4 C 81 % 11.18 C
1500 03-06-2014 09:30:00 14.4 C 81 % 11.18 C
Sensor: Nr:Datum:Temp:Feuchte:Taupunkt:
Aussen-T/F 1501 03-06-2014 09:35:00 14.6 C 82 % 11.56 C
1502 03-06-2014 09:40:00 14.7 C 81 % 11.48 C
1503 03-06-2014 09:45:00 14.8 C 80 % 11.39 C
1504 03-06-2014 09:50:00 15.1 C 79 % 11.49 C
1505 03-06-2014 09:55:00 15.5 C 77 % 11.49 C
1506 03-06-2014 10:00:00 16 C 78 % 12.17 C
1507 03-06-2014 10:05:00 16.5 C 78 % 12.65 C
1508 03-06-2014 10:10:00 17.1 C 74 % 12.43 C
1509 03-06-2014 10:15:00 17.4 C 72 % 12.3 C
1510 03-06-2014 10:20:00 17.8 C 70 % 12.26 C
1511 03-06-2014 10:25:00 17.9 C 70 % 12.35 C
1512 03-06-2014 10:30:00 18.2 C 69 % 12.42 C
1513 03-06-2014 10:35:00 18.4 C 69 % 12.61 C
1514 03-06-2014 10:40:00 18.7 C 68 % 12.68 C
1515 03-06-2014 10:45:00 18.9 C 64 % 11.95 C
1516 03-06-2014 10:50:00 18.9 C 68 % 12.87 C
1517 03-06-2014 10:55:00 18.9 C 67 % 12.64 C
1518 03-06-2014 11:00:00 18.8 C 67 % 12.55 C
1519 03-06-2014 11:05:00 18.7 C 67 % 12.45 C
1520 03-06-2014 11:10:00 18.6 C 72 % 13.46 C
1521 03-06-2014 11:15:00 18.6 C 70 % 13.02 C
1522 03-06-2014 11:20:00 18.6 C 70 % 13.02 C
1523 03-06-2014 11:25:00 18.9 C 69 % 13.09 C
1524 03-06-2014 11:30:00 19.3 C 65 % 12.56 C
1525 03-06-2014 11:35:00 19.7 C 66 % 13.17 C
Sensor: Nr:Datum:Temp:Feuchte:Taupunkt:
Aussen-T/F 1526 03-06-2014 11:40:00 20.1 C 63 % 12.84 C
1527 03-06-2014 11:45:00 20.6 C 62 % 13.07 C
1528 03-06-2014 11:50:00 20.9 C 63 % 13.6 C
1529 03-06-2014 11:55:00 20.8 C 58 % 12.24 C
1530 03-06-2014 12:00:00 20.7 C 63 % 13.41 C
1531 03-06-2014 12:05:00 20.1 C 66 % 13.55 C
1532 03-06-2014 12:10:00 19.2 C 72 % 14.03 C
1533 03-06-2014 12:15:00 18.6 C 73 % 13.67 C
1534 03-06-2014 12:20:00 18 C 75 % 13.51 C
1535 03-06-2014 12:25:00 17.7 C 77 % 13.62 C
1536 03-06-2014 12:30:00 17.6 C 78 % 13.72 C
1537 03-06-2014 12:35:00 17.6 C 77 % 13.52 C
1538 03-06-2014 12:40:00 17.8 C 78 % 13.91 C
1539 03-06-2014 12:45:00 18.5 C 70 % 12.93 C
1540 03-06-2014 12:50:00 19.7 C 62 % 12.22 C
1541 03-06-2014 12:55:00 20.4 C 55 % 11.06 C
1542 03-06-2014 13:00:00 21.1 C 52 % 10.87 C
1543 03-06-2014 13:05:00 21.8 C 52 % 11.51 C
1544 03-06-2014 13:10:00 22.2 C 48 % 10.67 C
1545 03-06-2014 13:15:00 22.4 C 46 % 10.22 C
1546 03-06-2014 13:20:00 22.7 C 47 % 10.81 C
1547 03-06-2014 13:25:00 22.9 C 44 % 10.01 C
1548 03-06-2014 13:30:00 23.1 C 40 % 8.77 C
1549 03-06-2014 13:35:00 23.3 C 40 % 8.95 C
1550 03-06-2014 13:40:00 23 C 40 % 8.68 C
Sensor: Nr:Datum:Temp:Feuchte:Taupunkt:
Aussen-T/F 1551 03-06-2014 13:45:00 23.1 C 40 % 8.77 C
1552 03-06-2014 13:50:00 23.3 C 40 % 8.95 C
1553 03-06-2014 13:55:00 23.3 C 40 % 8.95 C
1554 03-06-2014 14:20:00 21.7 C 56 % 12.54 C
1555 03-06-2014 14:25:00 21 C 58 % 12.43 C
1556 03-06-2014 14:30:00 20.9 C 61 % 13.1 C
1557 03-06-2014 14:35:00 20.8 C 58 % 12.24 C
1558 03-06-2014 14:40:00 20.8 C 53 % 10.88 C
1559 03-06-2014 14:45:00 20.7 C 54 % 11.07 C
1560 03-06-2014 14:50:00 20.6 C 55 % 11.25 C
1561 03-06-2014 14:55:00 20.4 C 56 % 11.33 C
1562 03-06-2014 15:00:00 20.2 C 56 % 11.15 C
1563 03-06-2014 15:05:00 19.9 C 58 % 11.4 C
1564 03-06-2014 15:10:00 19.7 C 58 % 11.21 C
1565 03-06-2014 15:15:00 19.6 C 58 % 11.12 C
1566 03-06-2014 15:20:00 19.6 C 58 % 11.12 C
1567 03-06-2014 15:25:00 19.7 C 58 % 11.21 C
1568 03-06-2014 15:30:00 19.8 C 56 % 10.78 C
1569 03-06-2014 15:35:00 19.9 C 55 % 10.6 C
1570 03-06-2014 15:40:00 20.1 C 56 % 11.06 C
1571 03-06-2014 15:45:00 20.3 C 57 % 11.51 C
1572 03-06-2014 15:50:00 20.5 C 52 % 10.31 C
1573 03-06-2014 15:55:00 20.3 C 53 % 10.41 C
1574 03-06-2014 16:00:00 20.3 C 53 % 10.41 C
1575 03-06-2014 16:05:00 20.3 C 53 % 10.41 C
Sensor: Nr:Datum:Temp:Feuchte:Taupunkt:
Aussen-T/F 1576 03-06-2014 16:10:00 20.4 C 55 % 11.06 C
1577 03-06-2014 16:15:00 20.4 C 57 % 11.6 C
1578 03-06-2014 16:20:00 20.4 C 56 % 11.33 C
1579 03-06-2014 16:25:00 20.3 C 60 % 12.29 C
1580 03-06-2014 16:30:00 20.1 C 67 % 13.78 C
1581 03-06-2014 16:35:00 19.7 C 69 % 13.86 C
1582 03-06-2014 16:40:00 19.4 C 69 % 13.57 C
1583 03-06-2014 16:45:00 19.2 C 71 % 13.82 C
1584 03-06-2014 16:50:00 19 C 70 % 13.41 C
1585 03-06-2014 16:55:00 18.8 C 72 % 13.65 C
1586 03-06-2014 17:00:00 18.8 C 72 % 13.65 C
1587 03-06-2014 17:05:00 18.8 C 71 % 13.43 C
1588 03-06-2014 17:10:00 18.9 C 72 % 13.74 C
1589 03-06-2014 17:15:00 18.9 C 73 % 13.96 C
1590 03-06-2014 17:20:00 18.9 C 74 % 14.17 C
1591 03-06-2014 17:25:00 18.9 C 74 % 14.17 C
1592 03-06-2014 17:30:00 18.8 C 74 % 14.07 C
1593 03-06-2014 17:35:00 18.8 C 75 % 14.28 C
1594 03-06-2014 17:40:00 18.9 C 74 % 14.17 C
1595 03-06-2014 17:45:00 19.1 C 66 % 12.6 C
1596 03-06-2014 17:50:00 19.4 C 70 % 13.79 C
1597 03-06-2014 17:55:00 19.8 C 67 % 13.5 C
1598 03-06-2014 18:00:00 20.1 C 63 % 12.84 C
1599 03-06-2014 18:05:00 20.1 C 58 % 11.58 C
1600 03-06-2014 18:10:00 20.2 C 58 % 11.68 C
Sensor: Nr:Datum:Temp:Feuchte:Taupunkt:
Aussen-T/F 1601 03-06-2014 18:15:00 20.3 C 58 % 11.77 C
1602 03-06-2014 18:20:00 20.4 C 67 % 14.07 C
1603 03-06-2014 18:25:00 20.4 C 69 % 14.52 C
1604 03-06-2014 18:30:00 20.3 C 70 % 14.65 C
1605 03-06-2014 18:35:00 20.4 C 56 % 11.33 C
1606 03-06-2014 18:40:00 20.9 C 54 % 11.25 C
1607 03-06-2014 18:45:00 21.4 C 52 % 11.14 C
1608 03-06-2014 18:50:00 21.7 C 51 % 11.13 C
1609 03-06-2014 18:55:00 21.5 C 61 % 13.67 C
1610 03-06-2014 19:00:00 21.2 C 63 % 13.88 C
1611 03-06-2014 19:05:00 20.9 C 63 % 13.6 C
1612 03-06-2014 19:10:00 20.5 C 65 % 13.7 C
1613 03-06-2014 19:15:00 20.1 C 69 % 14.24 C
1614 03-06-2014 19:20:00 19.8 C 68 % 13.73 C
1615 03-06-2014 19:25:00 19.6 C 68 % 13.54 C
1616 03-06-2014 19:30:00 19.3 C 71 % 13.91 C
1617 03-06-2014 19:35:00 18.9 C 72 % 13.74 C
1618 03-06-2014 19:40:00 18.4 C 73 % 13.48 C
1619 03-06-2014 19:45:00 18.1 C 75 % 13.6 C
1620 03-06-2014 19:50:00 17.8 C 75 % 13.31 C
1621 03-06-2014 19:55:00 17.6 C 76 % 13.32 C
1622 03-06-2014 20:00:00 17.5 C 76 % 13.23 C
1623 03-06-2014 20:05:00 17.3 C 76 % 13.03 C
1624 03-06-2014 20:10:00 17.2 C 77 % 13.14 C
1625 03-06-2014 20:15:00 17.2 C 76 % 12.94 C
Sensor: Nr:Datum:Temp:Feuchte:Taupunkt:
Aussen-T/F 1626 03-06-2014 20:20:00 17.1 C 77 % 13.04 C
1627 03-06-2014 20:25:00 16.9 C 78 % 13.04 C
1628 03-06-2014 20:30:00 16.9 C 77 % 12.84 C
1629 03-06-2014 20:35:00 16.8 C 77 % 12.75 C
1630 03-06-2014 20:40:00 16.8 C 77 % 12.75 C
1631 03-06-2014 20:45:00 16.8 C 77 % 12.75 C
1632 03-06-2014 20:50:00 16.9 C 78 % 13.04 C
1633 03-06-2014 20:55:00 16.9 C 78 % 13.04 C
1634 03-06-2014 21:00:00 16.8 C 79 % 13.14 C
1635 03-06-2014 21:05:00 16.8 C 79 % 13.14 C
1636 03-06-2014 21:10:00 16.7 C 79 % 13.04 C
1637 03-06-2014 21:15:00 16.5 C 79 % 12.85 C
1638 03-06-2014 21:20:00 16.4 C 78 % 12.56 C
1639 03-06-2014 21:25:00 16.2 C 78 % 12.36 C
1640 03-06-2014 21:30:00 16.1 C 78 % 12.27 C
1641 03-06-2014 21:35:00 15.9 C 78 % 12.07 C
1642 03-06-2014 21:40:00 15.8 C 77 % 11.78 C
1643 03-06-2014 21:45:00 15.7 C 77 % 11.68 C
1644 03-06-2014 21:50:00 15.6 C 77 % 11.59 C
1645 03-06-2014 21:55:00 15.4 C 77 % 11.39 C
1646 03-06-2014 22:00:00 15.3 C 77 % 11.3 C
1647 03-06-2014 22:05:00 15.2 C 78 % 11.39 C
1648 03-06-2014 22:10:00 15.1 C 78 % 11.3 C
1649 03-06-2014 22:15:00 14.9 C 78 % 11.1 C
1650 03-06-2014 22:20:00 14.8 C 79 % 11.2 C
Sensor: Nr:Datum:Temp:Feuchte:Taupunkt:
Aussen-T/F 1651 03-06-2014 22:25:00 14.7 C 79 % 11.1 C
1652 03-06-2014 22:30:00 14.6 C 79 % 11 C
1653 03-06-2014 22:35:00 14.4 C 79 % 10.81 C
1654 03-06-2014 22:40:00 14.3 C 80 % 10.9 C
1655 03-06-2014 22:45:00 14.2 C 81 % 10.99 C
1656 03-06-2014 22:50:00 14.2 C 81 % 10.99 C
1657 03-06-2014 22:55:00 14.1 C 81 % 10.89 C
1658 03-06-2014 23:00:00 14 C 81 % 10.79 C
1659 03-06-2014 23:05:00 13.9 C 81 % 10.7 C
1660 03-06-2014 23:10:00 13.9 C 82 % 10.88 C
1661 03-06-2014 23:15:00 13.8 C 82 % 10.78 C
1662 03-06-2014 23:20:00 13.7 C 82 % 10.69 C
1663 03-06-2014 23:25:00 13.6 C 83 % 10.77 C
1664 03-06-2014 23:30:00 13.6 C 83 % 10.77 C
1665 03-06-2014 23:35:00 13.4 C 83 % 10.57 C
1666 03-06-2014 23:40:00 13.4 C 85 % 10.93 C
1667 03-06-2014 23:45:00 13.5 C 84 % 10.85 C
1668 03-06-2014 23:50:00 13.4 C 84 % 10.75 C
1669 03-06-2014 23:55:00 13.4 C 84 % 10.75 C
1670 04-06-2014 00:00:00 13.2 C 85 % 10.74 C
1671 04-06-2014 00:05:00 13.2 C 85 % 10.74 C
1672 04-06-2014 00:10:00 13.1 C 86 % 10.81 C
1673 04-06-2014 00:15:00 13.1 C 86 % 10.81 C
1674 04-06-2014 00:20:00 13 C 86 % 10.72 C
1675 04-06-2014 00:25:00 13 C 86 % 10.72 C
Sensor: Nr:Datum:Temp:Feuchte:Taupunkt:
Aussen-T/F 1676 04-06-2014 00:30:00 12.9 C 87 % 10.79 C
1677 04-06-2014 00:35:00 12.9 C 86 % 10.62 C
1678 04-06-2014 00:40:00 12.8 C 87 % 10.69 C
1679 04-06-2014 00:45:00 12.8 C 87 % 10.69 C
1680 04-06-2014 00:50:00 12.8 C 87 % 10.69 C
1681 04-06-2014 00:55:00 12.8 C 87 % 10.69 C
1682 04-06-2014 01:00:00 12.7 C 87 % 10.59 C
1683 04-06-2014 01:05:00 12.7 C 87 % 10.59 C
1684 04-06-2014 01:10:00 12.5 C 88 % 10.57 C
1685 04-06-2014 01:15:00 12.4 C 88 % 10.47 C
1686 04-06-2014 01:20:00 12.3 C 88 % 10.37 C
1687 04-06-2014 01:25:00 12.3 C 89 % 10.54 C
1688 04-06-2014 01:30:00 12.2 C 88 % 10.27 C
1689 04-06-2014 01:35:00 12.1 C 89 % 10.34 C
1690 04-06-2014 01:40:00 11.9 C 89 % 10.15 C
1691 04-06-2014 01:45:00 11.9 C 89 % 10.15 C
1692 04-06-2014 01:50:00 11.9 C 89 % 10.15 C
1693 04-06-2014 01:55:00 11.9 C 89 % 10.15 C
1694 04-06-2014 02:00:00 11.8 C 90 % 10.21 C
1695 04-06-2014 02:05:00 11.8 C 90 % 10.21 C
1696 04-06-2014 02:10:00 11.8 C 90 % 10.21 C
1697 04-06-2014 02:15:00 11.8 C 90 % 10.21 C
1698 04-06-2014 02:20:00 11.7 C 91 % 10.28 C
1699 04-06-2014 02:25:00 11.7 C 91 % 10.28 C
1700 04-06-2014 02:30:00 11.6 C 91 % 10.18 C
Sensor: Nr:Datum:Temp:Feuchte:Taupunkt:
Aussen-T/F 1701 04-06-2014 02:35:00 11.5 C 91 % 10.08 C
1702 04-06-2014 02:40:00 11.4 C 91 % 9.98 C
1703 04-06-2014 02:45:00 11.4 C 91 % 9.98 C
1704 04-06-2014 02:50:00 11.3 C 92 % 10.05 C
1705 04-06-2014 02:55:00 11.3 C 92 % 10.05 C
1706 04-06-2014 03:00:00 11.3 C 92 % 10.05 C
1707 04-06-2014 03:05:00 11.3 C 92 % 10.05 C
1708 04-06-2014 03:10:00 11.2 C 92 % 9.95 C
1709 04-06-2014 03:15:00 11.1 C 92 % 9.85 C
1710 04-06-2014 03:20:00 11.1 C 92 % 9.85 C
1711 04-06-2014 03:25:00 11 C 93 % 9.91 C
1712 04-06-2014 03:30:00 10.9 C 93 % 9.81 C
1713 04-06-2014 03:35:00 10.9 C 93 % 9.81 C
1714 04-06-2014 03:40:00 10.8 C 93 % 9.71 C
1715 04-06-2014 03:45:00 10.8 C 93 % 9.71 C
1716 04-06-2014 03:50:00 10.8 C 93 % 9.71 C
1717 04-06-2014 03:55:00 10.8 C 93 % 9.71 C
1718 04-06-2014 04:00:00 10.8 C 93 % 9.71 C
1719 04-06-2014 04:05:00 10.8 C 94 % 9.87 C
1720 04-06-2014 04:10:00 10.8 C 94 % 9.87 C
1721 04-06-2014 04:15:00 10.7 C 94 % 9.77 C
1722 04-06-2014 04:20:00 10.7 C 94 % 9.77 C
1723 04-06-2014 04:25:00 10.7 C 94 % 9.77 C
1724 04-06-2014 04:30:00 10.6 C 94 % 9.68 C
1725 04-06-2014 04:35:00 10.5 C 94 % 9.58 C
Sensor: Nr:Datum:Temp:Feuchte:Taupunkt:
Aussen-T/F 1726 04-06-2014 04:40:00 10.5 C 94 % 9.58 C
1727 04-06-2014 04:45:00 10.6 C 94 % 9.68 C
1728 04-06-2014 04:50:00 10.6 C 94 % 9.68 C
1729 04-06-2014 04:55:00 10.6 C 94 % 9.68 C
1730 04-06-2014 05:00:00 10.7 C 94 % 9.77 C
1731 04-06-2014 05:05:00 10.7 C 94 % 9.77 C
1732 04-06-2014 05:10:00 10.8 C 95 % 10.03 C
1733 04-06-2014 05:15:00 10.8 C 95 % 10.03 C
1734 04-06-2014 05:20:00 10.9 C 95 % 10.13 C
1735 04-06-2014 05:25:00 10.9 C 94 % 9.97 C
1736 04-06-2014 05:30:00 10.9 C 94 % 9.97 C
1737 04-06-2014 05:35:00 10.9 C 94 % 9.97 C
1738 04-06-2014 05:40:00 10.9 C 94 % 9.97 C
1739 04-06-2014 05:45:00 10.9 C 94 % 9.97 C
1740 04-06-2014 05:50:00 10.9 C 94 % 9.97 C
1741 04-06-2014 05:55:00 10.9 C 94 % 9.97 C
1742 04-06-2014 06:00:00 10.9 C 94 % 9.97 C
1743 04-06-2014 06:05:00 11.1 C 94 % 10.17 C
1744 04-06-2014 06:10:00 11.2 C 94 % 10.27 C
1745 04-06-2014 06:15:00 11.3 C 94 % 10.37 C
1746 04-06-2014 06:20:00 11.4 C 94 % 10.47 C
1747 04-06-2014 06:25:00 11.6 C 93 % 10.51 C
1748 04-06-2014 06:30:00 11.7 C 93 % 10.61 C
1749 04-06-2014 06:35:00 11.8 C 93 % 10.71 C
1750 04-06-2014 06:40:00 11.9 C 92 % 10.64 C
Sensor: Nr:Datum:Temp:Feuchte:Taupunkt:
Aussen-T/F 1751 04-06-2014 06:45:00 12.1 C 92 % 10.84 C
1752 04-06-2014 06:50:00 12.1 C 91 % 10.68 C
1753 04-06-2014 06:55:00 12.2 C 91 % 10.78 C
1754 04-06-2014 07:00:00 12.3 C 90 % 10.71 C
1755 04-06-2014 07:05:00 12.4 C 90 % 10.81 C
1756 04-06-2014 07:10:00 12.5 C 90 % 10.91 C
1757 04-06-2014 07:15:00 12.6 C 89 % 10.84 C
1758 04-06-2014 07:20:00 12.7 C 89 % 10.94 C
1759 04-06-2014 07:25:00 12.8 C 90 % 11.2 C
1760 04-06-2014 07:30:00 12.9 C 89 % 11.13 C
1761 04-06-2014 07:35:00 13.1 C 89 % 11.33 C
1762 04-06-2014 07:40:00 13.3 C 88 % 11.36 C
1763 04-06-2014 07:45:00 13.4 C 88 % 11.45 C
1764 04-06-2014 07:50:00 13.6 C 88 % 11.65 C
1765 04-06-2014 07:55:00 13.7 C 87 % 11.58 C
1766 04-06-2014 08:00:00 13.8 C 87 % 11.68 C
1767 04-06-2014 08:05:00 14 C 87 % 11.87 C
1768 04-06-2014 08:10:00 14.4 C 87 % 12.27 C
1769 04-06-2014 08:15:00 14.8 C 85 % 12.3 C
1770 04-06-2014 08:20:00 15.3 C 84 % 12.61 C
1771 04-06-2014 08:25:00 15.7 C 83 % 12.82 C
1772 04-06-2014 08:30:00 15.9 C 82 % 12.83 C
1773 04-06-2014 08:35:00 16.2 C 81 % 12.94 C
1774 04-06-2014 08:40:00 16.4 C 80 % 12.94 C
1775 04-06-2014 08:45:00 16.8 C 81 % 13.52 C
Sensor: Nr:Datum:Temp:Feuchte:Taupunkt:
Aussen-T/F 1776 04-06-2014 08:50:00 17.1 C 77 % 13.04 C
1777 04-06-2014 08:55:00 17.4 C 75 % 12.93 C
1778 04-06-2014 09:00:00 17.5 C 75 % 13.02 C
1779 04-06-2014 09:05:00 17.6 C 74 % 12.91 C
1780 04-06-2014 09:10:00 17.7 C 72 % 12.59 C
1781 04-06-2014 09:15:00 17.8 C 73 % 12.9 C
1782 04-06-2014 09:20:00 17.8 C 73 % 12.9 C
1783 04-06-2014 09:25:00 17.8 C 72 % 12.69 C
1784 04-06-2014 09:30:00 17.9 C 73 % 12.99 C
1785 04-06-2014 09:35:00 18.1 C 74 % 13.4 C
1786 04-06-2014 09:40:00 18.3 C 72 % 13.17 C
1787 04-06-2014 09:45:00 18.3 C 71 % 12.95 C
1788 04-06-2014 09:50:00 18.3 C 71 % 12.95 C
1789 04-06-2014 09:55:00 18.3 C 71 % 12.95 C
1790 04-06-2014 11:40:00 20.4 C 69 % 14.52 C
1791 04-06-2014 11:45:00 20.6 C 68 % 14.49 C
1792 04-06-2014 11:50:00 20.8 C 65 % 13.98 C
1793 04-06-2014 11:55:00 20.9 C 65 % 14.08 C
1794 04-06-2014 12:00:00 21 C 63 % 13.69 C
1795 04-06-2014 12:05:00 20.9 C 63 % 13.6 C
1796 04-06-2014 12:10:00 20.9 C 65 % 14.08 C
1797 04-06-2014 12:15:00 20.8 C 64 % 13.74 C
1798 04-06-2014 12:20:00 20.6 C 69 % 14.71 C
1799 04-06-2014 12:25:00 20.3 C 66 % 13.74 C
1800 04-06-2014 12:30:00 20.1 C 71 % 14.68 C
Sensor: Nr:Datum:Temp:Feuchte:Taupunkt:
Aussen-T/F 1801 04-06-2014 12:35:00 19.8 C 66 % 13.27 C
1802 04-06-2014 12:40:00 19.7 C 65 % 12.94 C
1803 04-06-2014 12:45:00 19.5 C 65 % 12.75 C
1804 04-06-2014 12:50:00 19.3 C 65 % 12.56 C
1805 04-06-2014 12:55:00 19.1 C 65 % 12.37 C
1806 04-06-2014 13:00:00 18.8 C 67 % 12.55 C
1807 04-06-2014 13:05:00 18.4 C 69 % 12.61 C
1808 04-06-2014 13:10:00 18.2 C 72 % 13.07 C
1809 04-06-2014 13:15:00 17.9 C 73 % 12.99 C
1810 04-06-2014 13:20:00 17.8 C 72 % 12.69 C
1811 04-06-2014 13:25:00 17.9 C 73 % 12.99 C
1812 04-06-2014 13:30:00 18 C 73 % 13.09 C
1813 04-06-2014 13:35:00 17.9 C 74 % 13.2 C
1814 04-06-2014 13:40:00 17.8 C 74 % 13.11 C
1815 04-06-2014 13:45:00 17.7 C 76 % 13.42 C
1816 04-06-2014 13:50:00 17.7 C 80 % 14.21 C
1817 04-06-2014 13:55:00 17.6 C 80 % 14.11 C
1818 04-06-2014 14:00:00 17.5 C 78 % 13.62 C
1819 04-06-2014 14:05:00 17.4 C 79 % 13.72 C
1820 04-06-2014 14:10:00 17.3 C 81 % 14.01 C
1821 04-06-2014 14:15:00 17.2 C 82 % 14.1 C
1822 04-06-2014 14:20:00 17.1 C 82 % 14 C
1823 04-06-2014 14:25:00 16.9 C 83 % 14 C
1824 04-06-2014 14:30:00 16.7 C 84 % 13.98 C
1825 04-06-2014 14:35:00 16.5 C 86 % 14.15 C
Sensor: Nr:Datum:Temp:Feuchte:Taupunkt:
Aussen-T/F 1826 04-06-2014 14:40:00 16.4 C 87 % 14.23 C
1827 04-06-2014 14:45:00 16.5 C 88 % 14.51 C
1828 04-06-2014 14:50:00 16.8 C 90 % 15.15 C
1829 04-06-2014 14:55:00 17.1 C 90 % 15.45 C
1830 04-06-2014 15:00:00 17.4 C 89 % 15.57 C
1831 04-06-2014 15:05:00 17.6 C 86 % 15.23 C
1832 04-06-2014 15:10:00 17.8 C 85 % 15.25 C
1833 04-06-2014 15:15:00 17.9 C 84 % 15.16 C
1834 04-06-2014 15:20:00 17.8 C 85 % 15.25 C
1835 04-06-2014 15:25:00 17.6 C 87 % 15.41 C
1836 04-06-2014 15:30:00 17.2 C 88 % 15.2 C
1837 04-06-2014 15:35:00 17.1 C 90 % 15.45 C
1838 04-06-2014 15:40:00 17.2 C 91 % 15.72 C
1839 04-06-2014 15:45:00 17.2 C 90 % 15.55 C
1840 04-06-2014 15:50:00 17.2 C 90 % 15.55 C
1841 04-06-2014 15:55:00 17.3 C 90 % 15.64 C
1842 04-06-2014 16:00:00 17.4 C 90 % 15.74 C
1843 04-06-2014 16:05:00 17.5 C 90 % 15.84 C
1844 04-06-2014 16:10:00 17.4 C 90 % 15.74 C
1845 04-06-2014 16:15:00 17.4 C 90 % 15.74 C
1846 04-06-2014 16:20:00 17.4 C 91 % 15.92 C
1847 04-06-2014 16:25:00 17.3 C 91 % 15.82 C
1848 04-06-2014 16:30:00 17.2 C 91 % 15.72 C
1849 04-06-2014 16:35:00 17.1 C 92 % 15.79 C
1850 04-06-2014 16:40:00 16.7 C 92 % 15.39 C
Sensor: Nr:Datum:Temp:Feuchte:Taupunkt:
Aussen-T/F 1851 04-06-2014 16:45:00 16.6 C 93 % 15.46 C
1852 04-06-2014 16:50:00 16.5 C 93 % 15.36 C
1853 04-06-2014 16:55:00 16.6 C 94 % 15.63 C
1854 04-06-2014 17:00:00 16.4 C 93 % 15.27 C
1855 04-06-2014 17:05:00 16.6 C 94 % 15.63 C
1856 04-06-2014 17:10:00 16.6 C 94 % 15.63 C
1857 04-06-2014 17:15:00 16.7 C 94 % 15.73 C
1858 04-06-2014 17:20:00 16.8 C 95 % 15.99 C
1859 04-06-2014 17:25:00 16.8 C 95 % 15.99 C
1860 04-06-2014 17:30:00 16.8 C 95 % 15.99 C
1861 04-06-2014 17:35:00 16.8 C 95 % 15.99 C
1862 04-06-2014 17:40:00 16.8 C 95 % 15.99 C
1863 04-06-2014 17:45:00 16.5 C 93 % 15.36 C
1864 04-06-2014 17:50:00 16.3 C 93 % 15.17 C
1865 04-06-2014 17:55:00 16.2 C 93 % 15.07 C
1866 04-06-2014 18:00:00 16.1 C 93 % 14.97 C
1867 04-06-2014 18:05:00 16.1 C 94 % 15.13 C
1868 04-06-2014 18:10:00 16.2 C 94 % 15.23 C
1869 04-06-2014 18:15:00 16.2 C 95 % 15.4 C
1870 04-06-2014 18:20:00 16.3 C 95 % 15.5 C
1871 04-06-2014 18:25:00 16.5 C 95 % 15.7 C
1872 04-06-2014 18:30:00 16.6 C 94 % 15.63 C
1873 04-06-2014 18:35:00 16.9 C 93 % 15.76 C
1874 04-06-2014 18:40:00 17.2 C 92 % 15.89 C
1875 04-06-2014 18:45:00 17.4 C 90 % 15.74 C
Sensor: Nr:Datum:Temp:Feuchte:Taupunkt:
Aussen-T/F 1876 04-06-2014 18:50:00 17.8 C 88 % 15.79 C
1877 04-06-2014 18:55:00 17.9 C 89 % 16.06 C
1878 04-06-2014 19:00:00 17.9 C 88 % 15.88 C
1879 04-06-2014 19:05:00 18.1 C 87 % 15.9 C
1880 04-06-2014 19:10:00 18.1 C 89 % 16.26 C
1881 04-06-2014 19:15:00 18.1 C 85 % 15.54 C
1882 04-06-2014 19:20:00 18 C 88 % 15.98 C
1883 04-06-2014 19:25:00 17.8 C 89 % 15.96 C
1884 04-06-2014 19:30:00 17.6 C 90 % 15.94 C
1885 04-06-2014 19:35:00 17.6 C 90 % 15.94 C
1886 04-06-2014 21:45:00 14.6 C 95 % 13.81 C
1887 04-06-2014 21:50:00 14.5 C 94 % 13.55 C
1888 04-06-2014 21:55:00 14.5 C 94 % 13.55 C

Legende:
   Min
   Max


Maximal/Minimal-Werte vom 29.05.2014 - 04.06.2014

Sensor Min Max Avg
Temp
(Aussen-T/F)
5.3 °C
31-05-2014  05:55:00
24 °C
02-06-2014  17:45:00
14.55 °C
Feuchte
(Aussen-T/F)
38 %
02-06-2014  17:15:00
100 %
02-06-2014  09:15:00
75.64 %
Taupunkt
(Aussen-T/F)
4.57 C
31-05-2014  05:55:00
16.26 C
04-06-2014  19:10:00
9.87 C

Die Daten stammen von einer Davis Vantage Pro 2 Wetter-Station und werden unter Linux mit der Software wview2wettercgi und aufbereitet. Alle Angaben erfolgen ohne Gewähr für ihre Vollständigkeit oder Richtigkeit.
Kontakt: Rainer Krienke krienke@uni-koblenz.de . Meine Webseiten an der Uni Koblenz oder privat.
Version: $Revision: 0.78 $